<?xml version="1.0" encoding="UTF-8" standalone="no" ?>
<gpx xmlns="http://www.topografix.com/GPX/1/1" xmlns:xsi="http://www.w3.org/2001/XMLSchema-instance" xsi:schemaLocation="http://www.topografix.com/GPX/1/1 http://www.topografix.com/GPX/1/1/gpx.xsd" version="1.1" creator="VisuGPX - https://www.visugpx.com">
  <metadata>
    <name>Boucle chez les nones</name>
    <desc><![CDATA[Le single de Piquetière est en partie détruit par les exploitants fôrestiers. Dommage.

Attention poussage/portage sur la partie qui monte en zigzag au Désert]]></desc>
  </metadata>
  <trk>
    <name><![CDATA[Piste 1]]></name>
    <cmt><![CDATA[Course (1,0 m | 5 s | 100,0 m)]]></cmt>
    <trkseg>
      <trkpt lat="45.43812" lon="5.77406">
        <ele>482.639526</ele>
        <time>2019-09-07T08:23:41.831Z</time>
      </trkpt>
      <trkpt lat="45.43811" lon="5.77412">
        <ele>468.574585</ele>
        <time>2019-09-07T08:23:49.823Z</time>
      </trkpt>
      <trkpt lat="45.43813" lon="5.77418">
        <ele>466.352051</ele>
        <time>2019-09-07T08:23:55.824Z</time>
      </trkpt>
      <trkpt lat="45.43819" lon="5.77418">
        <ele>466.59021</ele>
        <time>2019-09-07T08:24:02.987Z</time>
      </trkpt>
      <trkpt lat="45.43846" lon="5.77429">
        <ele>463.346619</ele>
        <time>2019-09-07T08:24:08.018Z</time>
      </trkpt>
      <trkpt lat="45.43856" lon="5.77432">
        <ele>458.8479</ele>
        <time>2019-09-07T08:24:13.068Z</time>
      </trkpt>
      <trkpt lat="45.43857" lon="5.77437">
        <ele>455.75177</ele>
        <time>2019-09-07T08:24:18.094Z</time>
      </trkpt>
      <trkpt lat="45.43855" lon="5.77447">
        <ele>452.986938</ele>
        <time>2019-09-07T08:24:23.989Z</time>
      </trkpt>
      <trkpt lat="45.43846" lon="5.77481">
        <ele>449.067993</ele>
        <time>2019-09-07T08:24:29.009Z</time>
      </trkpt>
      <trkpt lat="45.43836" lon="5.7751">
        <ele>447.954834</ele>
        <time>2019-09-07T08:24:34.044Z</time>
      </trkpt>
      <trkpt lat="45.43828" lon="5.7754">
        <ele>445.716553</ele>
        <time>2019-09-07T08:24:39.085Z</time>
      </trkpt>
      <trkpt lat="45.43819" lon="5.77569">
        <ele>453.109131</ele>
        <time>2019-09-07T08:24:44.131Z</time>
      </trkpt>
      <trkpt lat="45.43811" lon="5.77598">
        <ele>451.95813</ele>
        <time>2019-09-07T08:24:49.169Z</time>
      </trkpt>
      <trkpt lat="45.43796" lon="5.77626">
        <ele>443.635132</ele>
        <time>2019-09-07T08:24:54.207Z</time>
      </trkpt>
      <trkpt lat="45.43772" lon="5.77642">
        <ele>445.666138</ele>
        <time>2019-09-07T08:24:59.268Z</time>
      </trkpt>
      <trkpt lat="45.43747" lon="5.77645">
        <ele>449.850098</ele>
        <time>2019-09-07T08:25:04.284Z</time>
      </trkpt>
      <trkpt lat="45.43717" lon="5.77658">
        <ele>449.326965</ele>
        <time>2019-09-07T08:25:09.825Z</time>
      </trkpt>
      <trkpt lat="45.43691" lon="5.7768">
        <ele>449.153809</ele>
        <time>2019-09-07T08:25:14.825Z</time>
      </trkpt>
      <trkpt lat="45.43672" lon="5.77708">
        <ele>448.108032</ele>
        <time>2019-09-07T08:25:19.827Z</time>
      </trkpt>
      <trkpt lat="45.43661" lon="5.77744">
        <ele>448.045105</ele>
        <time>2019-09-07T08:25:24.827Z</time>
      </trkpt>
      <trkpt lat="45.43652" lon="5.7778">
        <ele>445.877686</ele>
        <time>2019-09-07T08:25:30.674Z</time>
      </trkpt>
      <trkpt lat="45.43642" lon="5.77823">
        <ele>445.659302</ele>
        <time>2019-09-07T08:25:35.821Z</time>
      </trkpt>
      <trkpt lat="45.43636" lon="5.77858">
        <ele>445.18634</ele>
        <time>2019-09-07T08:25:40.821Z</time>
      </trkpt>
      <trkpt lat="45.43629" lon="5.7789">
        <ele>443.078491</ele>
        <time>2019-09-07T08:25:45.830Z</time>
      </trkpt>
      <trkpt lat="45.4362" lon="5.77917">
        <ele>443.745972</ele>
        <time>2019-09-07T08:25:50.831Z</time>
      </trkpt>
      <trkpt lat="45.43607" lon="5.7794">
        <ele>442.169006</ele>
        <time>2019-09-07T08:25:56.716Z</time>
      </trkpt>
      <trkpt lat="45.43593" lon="5.77951">
        <ele>446.508789</ele>
        <time>2019-09-07T08:26:01.750Z</time>
      </trkpt>
      <trkpt lat="45.43575" lon="5.7795">
        <ele>453.275757</ele>
        <time>2019-09-07T08:26:06.826Z</time>
      </trkpt>
      <trkpt lat="45.43554" lon="5.77951">
        <ele>459.850037</ele>
        <time>2019-09-07T08:26:11.874Z</time>
      </trkpt>
      <trkpt lat="45.43536" lon="5.77954">
        <ele>461.370117</ele>
        <time>2019-09-07T08:26:16.911Z</time>
      </trkpt>
      <trkpt lat="45.43519" lon="5.77957">
        <ele>459.773071</ele>
        <time>2019-09-07T08:26:21.963Z</time>
      </trkpt>
      <trkpt lat="45.43503" lon="5.77953">
        <ele>459.417542</ele>
        <time>2019-09-07T08:26:27.011Z</time>
      </trkpt>
      <trkpt lat="45.43489" lon="5.77943">
        <ele>461.816895</ele>
        <time>2019-09-07T08:26:32.015Z</time>
      </trkpt>
      <trkpt lat="45.43471" lon="5.77929">
        <ele>465.882202</ele>
        <time>2019-09-07T08:26:37.040Z</time>
      </trkpt>
      <trkpt lat="45.43451" lon="5.77917">
        <ele>469.459106</ele>
        <time>2019-09-07T08:26:42.089Z</time>
      </trkpt>
      <trkpt lat="45.43437" lon="5.77904">
        <ele>469.659058</ele>
        <time>2019-09-07T08:26:47.140Z</time>
      </trkpt>
      <trkpt lat="45.4342" lon="5.77895">
        <ele>474.914368</ele>
        <time>2019-09-07T08:26:52.170Z</time>
      </trkpt>
      <trkpt lat="45.434" lon="5.77892">
        <ele>477.394043</ele>
        <time>2019-09-07T08:26:57.211Z</time>
      </trkpt>
      <trkpt lat="45.43381" lon="5.77882">
        <ele>474.625977</ele>
        <time>2019-09-07T08:27:02.788Z</time>
      </trkpt>
      <trkpt lat="45.43361" lon="5.77869">
        <ele>476.096191</ele>
        <time>2019-09-07T08:27:07.832Z</time>
      </trkpt>
      <trkpt lat="45.43347" lon="5.77857">
        <ele>473.310181</ele>
        <time>2019-09-07T08:27:12.879Z</time>
      </trkpt>
      <trkpt lat="45.43338" lon="5.77848">
        <ele>475.562256</ele>
        <time>2019-09-07T08:27:18.944Z</time>
      </trkpt>
      <trkpt lat="45.43313" lon="5.77824">
        <ele>478.513062</ele>
        <time>2019-09-07T08:27:23.996Z</time>
      </trkpt>
      <trkpt lat="45.43299" lon="5.77797">
        <ele>487.297485</ele>
        <time>2019-09-07T08:27:29.027Z</time>
      </trkpt>
      <trkpt lat="45.43286" lon="5.77777">
        <ele>490.579224</ele>
        <time>2019-09-07T08:27:34.053Z</time>
      </trkpt>
      <trkpt lat="45.43273" lon="5.77761">
        <ele>493.984131</ele>
        <time>2019-09-07T08:27:39.109Z</time>
      </trkpt>
      <trkpt lat="45.43257" lon="5.77747">
        <ele>494.803406</ele>
        <time>2019-09-07T08:27:44.191Z</time>
      </trkpt>
      <trkpt lat="45.43238" lon="5.77741">
        <ele>495.726563</ele>
        <time>2019-09-07T08:27:49.241Z</time>
      </trkpt>
      <trkpt lat="45.43221" lon="5.77737">
        <ele>496.735718</ele>
        <time>2019-09-07T08:27:54.283Z</time>
      </trkpt>
      <trkpt lat="45.43209" lon="5.77729">
        <ele>495.454834</ele>
        <time>2019-09-07T08:27:59.334Z</time>
      </trkpt>
      <trkpt lat="45.43195" lon="5.77723">
        <ele>495.245361</ele>
        <time>2019-09-07T08:28:04.374Z</time>
      </trkpt>
      <trkpt lat="45.43182" lon="5.77706">
        <ele>493.9198</ele>
        <time>2019-09-07T08:28:09.424Z</time>
      </trkpt>
      <trkpt lat="45.43174" lon="5.77694">
        <ele>496.185791</ele>
        <time>2019-09-07T08:28:14.475Z</time>
      </trkpt>
      <trkpt lat="45.43164" lon="5.77673">
        <ele>497.504761</ele>
        <time>2019-09-07T08:28:19.500Z</time>
      </trkpt>
      <trkpt lat="45.43151" lon="5.77649">
        <ele>501.710205</ele>
        <time>2019-09-07T08:28:24.545Z</time>
      </trkpt>
      <trkpt lat="45.4314" lon="5.77623">
        <ele>504.926575</ele>
        <time>2019-09-07T08:28:29.581Z</time>
      </trkpt>
      <trkpt lat="45.43135" lon="5.776">
        <ele>510.67511</ele>
        <time>2019-09-07T08:28:34.627Z</time>
      </trkpt>
      <trkpt lat="45.43121" lon="5.7758">
        <ele>514.04126</ele>
        <time>2019-09-07T08:28:39.664Z</time>
      </trkpt>
      <trkpt lat="45.4311" lon="5.77569">
        <ele>516.541382</ele>
        <time>2019-09-07T08:28:44.691Z</time>
      </trkpt>
      <trkpt lat="45.4309" lon="5.77558">
        <ele>515.033081</ele>
        <time>2019-09-07T08:28:49.826Z</time>
      </trkpt>
      <trkpt lat="45.43076" lon="5.7754">
        <ele>516.155823</ele>
        <time>2019-09-07T08:28:54.826Z</time>
      </trkpt>
      <trkpt lat="45.43066" lon="5.77519">
        <ele>515.720947</ele>
        <time>2019-09-07T08:28:59.833Z</time>
      </trkpt>
      <trkpt lat="45.43053" lon="5.77506">
        <ele>519.053772</ele>
        <time>2019-09-07T08:29:04.835Z</time>
      </trkpt>
      <trkpt lat="45.4304" lon="5.77512">
        <ele>522.206116</ele>
        <time>2019-09-07T08:29:10.621Z</time>
      </trkpt>
      <trkpt lat="45.43038" lon="5.77538">
        <ele>510.535522</ele>
        <time>2019-09-07T08:29:15.661Z</time>
      </trkpt>
      <trkpt lat="45.43054" lon="5.77561">
        <ele>521.265808</ele>
        <time>2019-09-07T08:29:20.700Z</time>
      </trkpt>
      <trkpt lat="45.43068" lon="5.77578">
        <ele>524.247803</ele>
        <time>2019-09-07T08:29:25.743Z</time>
      </trkpt>
      <trkpt lat="45.43089" lon="5.77581">
        <ele>526.678467</ele>
        <time>2019-09-07T08:29:30.801Z</time>
      </trkpt>
      <trkpt lat="45.43108" lon="5.77595">
        <ele>528.230957</ele>
        <time>2019-09-07T08:29:35.850Z</time>
      </trkpt>
      <trkpt lat="45.43125" lon="5.7761">
        <ele>529.652588</ele>
        <time>2019-09-07T08:29:40.885Z</time>
      </trkpt>
      <trkpt lat="45.43119" lon="5.77631">
        <ele>527.305786</ele>
        <time>2019-09-07T08:29:45.923Z</time>
      </trkpt>
      <trkpt lat="45.43103" lon="5.77628">
        <ele>516.93335</ele>
        <time>2019-09-07T08:29:50.962Z</time>
      </trkpt>
      <trkpt lat="45.43085" lon="5.77627">
        <ele>526.873535</ele>
        <time>2019-09-07T08:29:55.998Z</time>
      </trkpt>
      <trkpt lat="45.43069" lon="5.77638">
        <ele>526.94873</ele>
        <time>2019-09-07T08:30:01.038Z</time>
      </trkpt>
      <trkpt lat="45.43056" lon="5.77646">
        <ele>526.638672</ele>
        <time>2019-09-07T08:30:06.104Z</time>
      </trkpt>
      <trkpt lat="45.4304" lon="5.7765">
        <ele>530.295898</ele>
        <time>2019-09-07T08:30:11.178Z</time>
      </trkpt>
      <trkpt lat="45.43024" lon="5.77648">
        <ele>534.879028</ele>
        <time>2019-09-07T08:30:16.233Z</time>
      </trkpt>
      <trkpt lat="45.4301" lon="5.77656">
        <ele>534.65625</ele>
        <time>2019-09-07T08:30:21.298Z</time>
      </trkpt>
      <trkpt lat="45.42996" lon="5.77671">
        <ele>535.269043</ele>
        <time>2019-09-07T08:30:26.336Z</time>
      </trkpt>
      <trkpt lat="45.42984" lon="5.77688">
        <ele>536.670898</ele>
        <time>2019-09-07T08:30:31.383Z</time>
      </trkpt>
      <trkpt lat="45.42974" lon="5.77706">
        <ele>540.076782</ele>
        <time>2019-09-07T08:30:36.430Z</time>
      </trkpt>
      <trkpt lat="45.42958" lon="5.77731">
        <ele>541.598633</ele>
        <time>2019-09-07T08:30:41.817Z</time>
      </trkpt>
      <trkpt lat="45.42944" lon="5.77758">
        <ele>543.493408</ele>
        <time>2019-09-07T08:30:46.823Z</time>
      </trkpt>
      <trkpt lat="45.42931" lon="5.77776">
        <ele>544.012085</ele>
        <time>2019-09-07T08:30:51.829Z</time>
      </trkpt>
      <trkpt lat="45.4292" lon="5.77792">
        <ele>541.804321</ele>
        <time>2019-09-07T08:30:56.829Z</time>
      </trkpt>
      <trkpt lat="45.42906" lon="5.77799">
        <ele>542.314453</ele>
        <time>2019-09-07T08:31:02.642Z</time>
      </trkpt>
      <trkpt lat="45.42904" lon="5.77786">
        <ele>546.177368</ele>
        <time>2019-09-07T08:31:21.824Z</time>
      </trkpt>
      <trkpt lat="45.42901" lon="5.77774">
        <ele>547.54126</ele>
        <time>2019-09-07T08:31:26.827Z</time>
      </trkpt>
      <trkpt lat="45.42899" lon="5.77754">
        <ele>545.839355</ele>
        <time>2019-09-07T08:31:32.818Z</time>
      </trkpt>
      <trkpt lat="45.42896" lon="5.77736">
        <ele>547.052734</ele>
        <time>2019-09-07T08:31:38.812Z</time>
      </trkpt>
      <trkpt lat="45.4289" lon="5.77716">
        <ele>548.717529</ele>
        <time>2019-09-07T08:31:43.818Z</time>
      </trkpt>
      <trkpt lat="45.42883" lon="5.77699">
        <ele>548.881836</ele>
        <time>2019-09-07T08:31:48.820Z</time>
      </trkpt>
      <trkpt lat="45.42876" lon="5.77683">
        <ele>551.946533</ele>
        <time>2019-09-07T08:31:53.825Z</time>
      </trkpt>
      <trkpt lat="45.42869" lon="5.77668">
        <ele>555.638306</ele>
        <time>2019-09-07T08:31:59.522Z</time>
      </trkpt>
      <trkpt lat="45.42873" lon="5.77651">
        <ele>557.390991</ele>
        <time>2019-09-07T08:32:04.570Z</time>
      </trkpt>
      <trkpt lat="45.42882" lon="5.77639">
        <ele>557.481445</ele>
        <time>2019-09-07T08:32:09.610Z</time>
      </trkpt>
      <trkpt lat="45.42894" lon="5.77626">
        <ele>558.471436</ele>
        <time>2019-09-07T08:32:14.646Z</time>
      </trkpt>
      <trkpt lat="45.42905" lon="5.77614">
        <ele>558.322021</ele>
        <time>2019-09-07T08:32:19.694Z</time>
      </trkpt>
      <trkpt lat="45.42911" lon="5.77593">
        <ele>561.543701</ele>
        <time>2019-09-07T08:32:24.815Z</time>
      </trkpt>
      <trkpt lat="45.42902" lon="5.7758">
        <ele>563.127686</ele>
        <time>2019-09-07T08:32:29.823Z</time>
      </trkpt>
      <trkpt lat="45.42892" lon="5.77568">
        <ele>564.99292</ele>
        <time>2019-09-07T08:32:34.827Z</time>
      </trkpt>
      <trkpt lat="45.42888" lon="5.77563">
        <ele>566.565308</ele>
        <time>2019-09-07T08:32:39.970Z</time>
      </trkpt>
      <trkpt lat="45.42872" lon="5.77546">
        <ele>569.902588</ele>
        <time>2019-09-07T08:32:45.058Z</time>
      </trkpt>
      <trkpt lat="45.42861" lon="5.77535">
        <ele>572.147827</ele>
        <time>2019-09-07T08:32:50.090Z</time>
      </trkpt>
      <trkpt lat="45.42851" lon="5.77522">
        <ele>571.727783</ele>
        <time>2019-09-07T08:32:55.125Z</time>
      </trkpt>
      <trkpt lat="45.42841" lon="5.7751">
        <ele>574.771484</ele>
        <time>2019-09-07T08:33:00.173Z</time>
      </trkpt>
      <trkpt lat="45.42836" lon="5.77495">
        <ele>577.490845</ele>
        <time>2019-09-07T08:33:05.210Z</time>
      </trkpt>
      <trkpt lat="45.42839" lon="5.77477">
        <ele>578.443359</ele>
        <time>2019-09-07T08:33:10.265Z</time>
      </trkpt>
      <trkpt lat="45.42845" lon="5.77462">
        <ele>578.040283</ele>
        <time>2019-09-07T08:33:15.315Z</time>
      </trkpt>
      <trkpt lat="45.42851" lon="5.77444">
        <ele>581.668335</ele>
        <time>2019-09-07T08:33:20.368Z</time>
      </trkpt>
      <trkpt lat="45.42857" lon="5.77429">
        <ele>583.7146</ele>
        <time>2019-09-07T08:33:25.410Z</time>
      </trkpt>
      <trkpt lat="45.42857" lon="5.77409">
        <ele>583.370605</ele>
        <time>2019-09-07T08:33:30.832Z</time>
      </trkpt>
      <trkpt lat="45.42852" lon="5.77392">
        <ele>586.167725</ele>
        <time>2019-09-07T08:33:35.833Z</time>
      </trkpt>
      <trkpt lat="45.42844" lon="5.77383">
        <ele>588.126953</ele>
        <time>2019-09-07T08:33:40.833Z</time>
      </trkpt>
      <trkpt lat="45.42833" lon="5.77371">
        <ele>587.953369</ele>
        <time>2019-09-07T08:33:45.833Z</time>
      </trkpt>
      <trkpt lat="45.42822" lon="5.7736">
        <ele>590.211914</ele>
        <time>2019-09-07T08:33:50.840Z</time>
      </trkpt>
      <trkpt lat="45.42811" lon="5.77347">
        <ele>590.880127</ele>
        <time>2019-09-07T08:33:55.840Z</time>
      </trkpt>
      <trkpt lat="45.42799" lon="5.77336">
        <ele>590.55542</ele>
        <time>2019-09-07T08:34:00.840Z</time>
      </trkpt>
      <trkpt lat="45.42788" lon="5.77326">
        <ele>587.52063</ele>
        <time>2019-09-07T08:34:05.840Z</time>
      </trkpt>
      <trkpt lat="45.42775" lon="5.7732">
        <ele>587.576172</ele>
        <time>2019-09-07T08:34:11.846Z</time>
      </trkpt>
      <trkpt lat="45.42758" lon="5.77316">
        <ele>590.676025</ele>
        <time>2019-09-07T08:34:16.883Z</time>
      </trkpt>
      <trkpt lat="45.42743" lon="5.77308">
        <ele>591.105835</ele>
        <time>2019-09-07T08:34:21.923Z</time>
      </trkpt>
      <trkpt lat="45.42726" lon="5.77291">
        <ele>589.84375</ele>
        <time>2019-09-07T08:34:26.967Z</time>
      </trkpt>
      <trkpt lat="45.42717" lon="5.77263">
        <ele>589.835205</ele>
        <time>2019-09-07T08:34:32.024Z</time>
      </trkpt>
      <trkpt lat="45.42707" lon="5.7724">
        <ele>589.828369</ele>
        <time>2019-09-07T08:34:37.070Z</time>
      </trkpt>
      <trkpt lat="45.42688" lon="5.77223">
        <ele>589.843262</ele>
        <time>2019-09-07T08:34:42.834Z</time>
      </trkpt>
      <trkpt lat="45.42666" lon="5.77209">
        <ele>589.183472</ele>
        <time>2019-09-07T08:34:47.834Z</time>
      </trkpt>
      <trkpt lat="45.42646" lon="5.77193">
        <ele>590.687256</ele>
        <time>2019-09-07T08:34:52.835Z</time>
      </trkpt>
      <trkpt lat="45.42635" lon="5.77179">
        <ele>590.261719</ele>
        <time>2019-09-07T08:34:58.609Z</time>
      </trkpt>
      <trkpt lat="45.42626" lon="5.77165">
        <ele>588.570435</ele>
        <time>2019-09-07T08:35:03.656Z</time>
      </trkpt>
      <trkpt lat="45.42617" lon="5.77156">
        <ele>587.464355</ele>
        <time>2019-09-07T08:35:08.696Z</time>
      </trkpt>
      <trkpt lat="45.42607" lon="5.77147">
        <ele>586.830078</ele>
        <time>2019-09-07T08:35:13.743Z</time>
      </trkpt>
      <trkpt lat="45.42596" lon="5.7714">
        <ele>580.57959</ele>
        <time>2019-09-07T08:35:18.777Z</time>
      </trkpt>
      <trkpt lat="45.42584" lon="5.77127">
        <ele>583.504761</ele>
        <time>2019-09-07T08:35:23.830Z</time>
      </trkpt>
      <trkpt lat="45.42573" lon="5.77117">
        <ele>582.34729</ele>
        <time>2019-09-07T08:35:30.832Z</time>
      </trkpt>
      <trkpt lat="45.42553" lon="5.77112">
        <ele>581.086914</ele>
        <time>2019-09-07T08:35:36.828Z</time>
      </trkpt>
      <trkpt lat="45.4254" lon="5.77106">
        <ele>582.600342</ele>
        <time>2019-09-07T08:35:41.830Z</time>
      </trkpt>
      <trkpt lat="45.42532" lon="5.77101">
        <ele>588.347412</ele>
        <time>2019-09-07T08:36:39.357Z</time>
      </trkpt>
      <trkpt lat="45.4253" lon="5.77099">
        <ele>591.294189</ele>
        <time>2019-09-07T08:37:00.830Z</time>
      </trkpt>
      <trkpt lat="45.42522" lon="5.77096">
        <ele>589.495605</ele>
        <time>2019-09-07T08:37:05.831Z</time>
      </trkpt>
      <trkpt lat="45.42511" lon="5.77084">
        <ele>587.705933</ele>
        <time>2019-09-07T08:37:10.831Z</time>
      </trkpt>
      <trkpt lat="45.42493" lon="5.77049">
        <ele>580.287964</ele>
        <time>2019-09-07T08:37:16.826Z</time>
      </trkpt>
      <trkpt lat="45.42489" lon="5.77029">
        <ele>579.018433</ele>
        <time>2019-09-07T08:37:21.826Z</time>
      </trkpt>
      <trkpt lat="45.42476" lon="5.77015">
        <ele>577.054077</ele>
        <time>2019-09-07T08:37:36.831Z</time>
      </trkpt>
      <trkpt lat="45.42459" lon="5.77007">
        <ele>575.628662</ele>
        <time>2019-09-07T08:37:42.448Z</time>
      </trkpt>
      <trkpt lat="45.42439" lon="5.76991">
        <ele>542.798096</ele>
        <time>2019-09-07T08:37:47.498Z</time>
      </trkpt>
      <trkpt lat="45.42423" lon="5.76977">
        <ele>571.718628</ele>
        <time>2019-09-07T08:38:07.817Z</time>
      </trkpt>
      <trkpt lat="45.42415" lon="5.76962">
        <ele>571.356201</ele>
        <time>2019-09-07T08:38:12.817Z</time>
      </trkpt>
      <trkpt lat="45.42406" lon="5.76952">
        <ele>572.927002</ele>
        <time>2019-09-07T08:38:17.819Z</time>
      </trkpt>
      <trkpt lat="45.42393" lon="5.7694">
        <ele>573.705566</ele>
        <time>2019-09-07T08:38:22.829Z</time>
      </trkpt>
      <trkpt lat="45.4238" lon="5.76929">
        <ele>568.708496</ele>
        <time>2019-09-07T08:38:27.829Z</time>
      </trkpt>
      <trkpt lat="45.42364" lon="5.76917">
        <ele>568.449951</ele>
        <time>2019-09-07T08:38:32.829Z</time>
      </trkpt>
      <trkpt lat="45.42356" lon="5.76908">
        <ele>566.89563</ele>
        <time>2019-09-07T08:38:37.829Z</time>
      </trkpt>
      <trkpt lat="45.42349" lon="5.76901">
        <ele>565.751709</ele>
        <time>2019-09-07T08:38:42.836Z</time>
      </trkpt>
      <trkpt lat="45.42342" lon="5.76892">
        <ele>568.964111</ele>
        <time>2019-09-07T08:39:50.824Z</time>
      </trkpt>
      <trkpt lat="45.42334" lon="5.76888">
        <ele>564.468018</ele>
        <time>2019-09-07T08:39:55.886Z</time>
      </trkpt>
      <trkpt lat="45.42318" lon="5.76887">
        <ele>560.618042</ele>
        <time>2019-09-07T08:40:01.422Z</time>
      </trkpt>
      <trkpt lat="45.42306" lon="5.76878">
        <ele>560.933838</ele>
        <time>2019-09-07T08:40:06.453Z</time>
      </trkpt>
      <trkpt lat="45.42301" lon="5.7687">
        <ele>560.168701</ele>
        <time>2019-09-07T08:40:11.498Z</time>
      </trkpt>
      <trkpt lat="45.42286" lon="5.76853">
        <ele>561.232788</ele>
        <time>2019-09-07T08:40:16.532Z</time>
      </trkpt>
      <trkpt lat="45.42272" lon="5.76845">
        <ele>560.930664</ele>
        <time>2019-09-07T08:40:21.566Z</time>
      </trkpt>
      <trkpt lat="45.42251" lon="5.76827">
        <ele>558.638672</ele>
        <time>2019-09-07T08:40:26.592Z</time>
      </trkpt>
      <trkpt lat="45.42232" lon="5.76818">
        <ele>556.973389</ele>
        <time>2019-09-07T08:40:31.624Z</time>
      </trkpt>
      <trkpt lat="45.4222" lon="5.76814">
        <ele>556.574463</ele>
        <time>2019-09-07T08:40:36.674Z</time>
      </trkpt>
      <trkpt lat="45.42208" lon="5.7681">
        <ele>561.10022</ele>
        <time>2019-09-07T08:40:41.720Z</time>
      </trkpt>
      <trkpt lat="45.42195" lon="5.76804">
        <ele>561.704102</ele>
        <time>2019-09-07T08:40:46.779Z</time>
      </trkpt>
      <trkpt lat="45.42182" lon="5.76804">
        <ele>571.117432</ele>
        <time>2019-09-07T08:41:23.818Z</time>
      </trkpt>
      <trkpt lat="45.42177" lon="5.768">
        <ele>567.01001</ele>
        <time>2019-09-07T08:41:42.813Z</time>
      </trkpt>
      <trkpt lat="45.42163" lon="5.76797">
        <ele>568.128052</ele>
        <time>2019-09-07T08:41:47.827Z</time>
      </trkpt>
      <trkpt lat="45.4215" lon="5.76809">
        <ele>566.465576</ele>
        <time>2019-09-07T08:41:52.830Z</time>
      </trkpt>
      <trkpt lat="45.42131" lon="5.76814">
        <ele>564.785034</ele>
        <time>2019-09-07T08:41:57.834Z</time>
      </trkpt>
      <trkpt lat="45.42105" lon="5.76812">
        <ele>559.426758</ele>
        <time>2019-09-07T08:42:02.837Z</time>
      </trkpt>
      <trkpt lat="45.42089" lon="5.76806">
        <ele>555.467896</ele>
        <time>2019-09-07T08:42:08.502Z</time>
      </trkpt>
      <trkpt lat="45.42069" lon="5.76791">
        <ele>550.692139</ele>
        <time>2019-09-07T08:42:13.551Z</time>
      </trkpt>
      <trkpt lat="45.4206" lon="5.76776">
        <ele>555.256104</ele>
        <time>2019-09-07T08:42:18.600Z</time>
      </trkpt>
      <trkpt lat="45.42048" lon="5.76756">
        <ele>555.197754</ele>
        <time>2019-09-07T08:42:23.638Z</time>
      </trkpt>
      <trkpt lat="45.4204" lon="5.7674">
        <ele>561.055908</ele>
        <time>2019-09-07T08:42:28.687Z</time>
      </trkpt>
      <trkpt lat="45.42032" lon="5.76745">
        <ele>559.442139</ele>
        <time>2019-09-07T08:42:33.732Z</time>
      </trkpt>
      <trkpt lat="45.42021" lon="5.76747">
        <ele>556.659912</ele>
        <time>2019-09-07T08:42:38.768Z</time>
      </trkpt>
      <trkpt lat="45.42009" lon="5.76743">
        <ele>556.428711</ele>
        <time>2019-09-07T08:42:44.973Z</time>
      </trkpt>
      <trkpt lat="45.41991" lon="5.76735">
        <ele>553.632935</ele>
        <time>2019-09-07T08:42:50.003Z</time>
      </trkpt>
      <trkpt lat="45.41982" lon="5.7672">
        <ele>555.571533</ele>
        <time>2019-09-07T08:42:55.047Z</time>
      </trkpt>
      <trkpt lat="45.41971" lon="5.76711">
        <ele>553.682983</ele>
        <time>2019-09-07T08:43:00.109Z</time>
      </trkpt>
      <trkpt lat="45.41954" lon="5.76707">
        <ele>554.884277</ele>
        <time>2019-09-07T08:43:05.148Z</time>
      </trkpt>
      <trkpt lat="45.41937" lon="5.76694">
        <ele>557.937012</ele>
        <time>2019-09-07T08:43:10.198Z</time>
      </trkpt>
      <trkpt lat="45.41924" lon="5.76684">
        <ele>555.130127</ele>
        <time>2019-09-07T08:43:15.237Z</time>
      </trkpt>
      <trkpt lat="45.41913" lon="5.76679">
        <ele>554.702148</ele>
        <time>2019-09-07T08:43:27.964Z</time>
      </trkpt>
      <trkpt lat="45.41895" lon="5.76661">
        <ele>553.04541</ele>
        <time>2019-09-07T08:43:33.007Z</time>
      </trkpt>
      <trkpt lat="45.41889" lon="5.7665">
        <ele>557.029541</ele>
        <time>2019-09-07T08:43:38.033Z</time>
      </trkpt>
      <trkpt lat="45.41876" lon="5.7664">
        <ele>561.426758</ele>
        <time>2019-09-07T08:43:43.048Z</time>
      </trkpt>
      <trkpt lat="45.41858" lon="5.76626">
        <ele>556.848633</ele>
        <time>2019-09-07T08:43:48.091Z</time>
      </trkpt>
      <trkpt lat="45.41843" lon="5.76612">
        <ele>560.281494</ele>
        <time>2019-09-07T08:43:53.145Z</time>
      </trkpt>
      <trkpt lat="45.41827" lon="5.76599">
        <ele>561.182617</ele>
        <time>2019-09-07T08:43:58.184Z</time>
      </trkpt>
      <trkpt lat="45.41813" lon="5.76586">
        <ele>559.485107</ele>
        <time>2019-09-07T08:44:03.226Z</time>
      </trkpt>
      <trkpt lat="45.41798" lon="5.76574">
        <ele>554.063232</ele>
        <time>2019-09-07T08:44:08.267Z</time>
      </trkpt>
      <trkpt lat="45.41789" lon="5.76567">
        <ele>552.168213</ele>
        <time>2019-09-07T08:44:13.314Z</time>
      </trkpt>
      <trkpt lat="45.41774" lon="5.76559">
        <ele>547.313232</ele>
        <time>2019-09-07T08:44:20.817Z</time>
      </trkpt>
      <trkpt lat="45.41759" lon="5.76553">
        <ele>547.440918</ele>
        <time>2019-09-07T08:44:25.828Z</time>
      </trkpt>
      <trkpt lat="45.4175" lon="5.76532">
        <ele>548.155029</ele>
        <time>2019-09-07T08:44:30.828Z</time>
      </trkpt>
      <trkpt lat="45.41737" lon="5.76511">
        <ele>547.698853</ele>
        <time>2019-09-07T08:44:35.828Z</time>
      </trkpt>
      <trkpt lat="45.41727" lon="5.76496">
        <ele>545.609863</ele>
        <time>2019-09-07T08:44:41.994Z</time>
      </trkpt>
      <trkpt lat="45.41707" lon="5.76476">
        <ele>546.5</ele>
        <time>2019-09-07T08:44:47.009Z</time>
      </trkpt>
      <trkpt lat="45.41695" lon="5.76474">
        <ele>547.524902</ele>
        <time>2019-09-07T08:44:52.976Z</time>
      </trkpt>
      <trkpt lat="45.41665" lon="5.76466">
        <ele>543.560303</ele>
        <time>2019-09-07T08:44:58.967Z</time>
      </trkpt>
      <trkpt lat="45.41636" lon="5.76458">
        <ele>541.855469</ele>
        <time>2019-09-07T08:45:04.034Z</time>
      </trkpt>
      <trkpt lat="45.41622" lon="5.76456">
        <ele>489.01001</ele>
        <time>2019-09-07T08:45:09.061Z</time>
      </trkpt>
      <trkpt lat="45.416" lon="5.76452">
        <ele>511.260986</ele>
        <time>2019-09-07T08:45:14.106Z</time>
      </trkpt>
      <trkpt lat="45.41559" lon="5.76425">
        <ele>515.969177</ele>
        <time>2019-09-07T08:45:19.142Z</time>
      </trkpt>
      <trkpt lat="45.41523" lon="5.76402">
        <ele>519.705139</ele>
        <time>2019-09-07T08:45:24.189Z</time>
      </trkpt>
      <trkpt lat="45.41481" lon="5.76439">
        <ele>524.791504</ele>
        <time>2019-09-07T08:45:29.238Z</time>
      </trkpt>
      <trkpt lat="45.4146" lon="5.76473">
        <ele>480.16687</ele>
        <time>2019-09-07T08:45:34.271Z</time>
      </trkpt>
      <trkpt lat="45.41426" lon="5.76489">
        <ele>507.796143</ele>
        <time>2019-09-07T08:45:39.306Z</time>
      </trkpt>
      <trkpt lat="45.41416" lon="5.76506">
        <ele>513.29657</ele>
        <time>2019-09-07T08:45:44.356Z</time>
      </trkpt>
      <trkpt lat="45.41417" lon="5.76511">
        <ele>519.981934</ele>
        <time>2019-09-07T08:46:27.824Z</time>
      </trkpt>
      <trkpt lat="45.41419" lon="5.76525">
        <ele>514.359131</ele>
        <time>2019-09-07T08:46:32.894Z</time>
      </trkpt>
      <trkpt lat="45.41416" lon="5.76546">
        <ele>513.195801</ele>
        <time>2019-09-07T08:46:38.831Z</time>
      </trkpt>
      <trkpt lat="45.41417" lon="5.76565">
        <ele>512.974792</ele>
        <time>2019-09-07T08:46:43.833Z</time>
      </trkpt>
      <trkpt lat="45.41416" lon="5.76583">
        <ele>513.494019</ele>
        <time>2019-09-07T08:46:48.833Z</time>
      </trkpt>
      <trkpt lat="45.41416" lon="5.76601">
        <ele>515.252258</ele>
        <time>2019-09-07T08:46:53.833Z</time>
      </trkpt>
      <trkpt lat="45.41413" lon="5.76622">
        <ele>514.560425</ele>
        <time>2019-09-07T08:46:59.829Z</time>
      </trkpt>
      <trkpt lat="45.4141" lon="5.76644">
        <ele>512.648621</ele>
        <time>2019-09-07T08:47:04.830Z</time>
      </trkpt>
      <trkpt lat="45.41402" lon="5.76671">
        <ele>512.889343</ele>
        <time>2019-09-07T08:47:10.160Z</time>
      </trkpt>
      <trkpt lat="45.41395" lon="5.76695">
        <ele>512.943665</ele>
        <time>2019-09-07T08:47:15.201Z</time>
      </trkpt>
      <trkpt lat="45.41388" lon="5.76716">
        <ele>512.546997</ele>
        <time>2019-09-07T08:47:20.246Z</time>
      </trkpt>
      <trkpt lat="45.41382" lon="5.76737">
        <ele>511.892395</ele>
        <time>2019-09-07T08:47:25.293Z</time>
      </trkpt>
      <trkpt lat="45.41373" lon="5.76758">
        <ele>511.952881</ele>
        <time>2019-09-07T08:47:30.333Z</time>
      </trkpt>
      <trkpt lat="45.41367" lon="5.76773">
        <ele>513.948364</ele>
        <time>2019-09-07T08:47:35.382Z</time>
      </trkpt>
      <trkpt lat="45.41363" lon="5.76792">
        <ele>512.148132</ele>
        <time>2019-09-07T08:47:40.438Z</time>
      </trkpt>
      <trkpt lat="45.41362" lon="5.76809">
        <ele>515.093323</ele>
        <time>2019-09-07T08:47:45.483Z</time>
      </trkpt>
      <trkpt lat="45.41363" lon="5.76831">
        <ele>517.611084</ele>
        <time>2019-09-07T08:47:50.546Z</time>
      </trkpt>
      <trkpt lat="45.41364" lon="5.76857">
        <ele>520.083984</ele>
        <time>2019-09-07T08:47:55.585Z</time>
      </trkpt>
      <trkpt lat="45.41366" lon="5.7688">
        <ele>519.220398</ele>
        <time>2019-09-07T08:48:00.633Z</time>
      </trkpt>
      <trkpt lat="45.41357" lon="5.76895">
        <ele>518.337341</ele>
        <time>2019-09-07T08:48:05.675Z</time>
      </trkpt>
      <trkpt lat="45.41364" lon="5.76912">
        <ele>514.426758</ele>
        <time>2019-09-07T08:48:10.707Z</time>
      </trkpt>
      <trkpt lat="45.41373" lon="5.76895">
        <ele>514.17627</ele>
        <time>2019-09-07T08:48:15.766Z</time>
      </trkpt>
      <trkpt lat="45.41386" lon="5.76899">
        <ele>514.05127</ele>
        <time>2019-09-07T08:48:20.816Z</time>
      </trkpt>
      <trkpt lat="45.41404" lon="5.7691">
        <ele>513.567566</ele>
        <time>2019-09-07T08:48:25.828Z</time>
      </trkpt>
      <trkpt lat="45.41412" lon="5.76924">
        <ele>517.176453</ele>
        <time>2019-09-07T08:48:30.845Z</time>
      </trkpt>
      <trkpt lat="45.41404" lon="5.76942">
        <ele>516.772095</ele>
        <time>2019-09-07T08:48:35.927Z</time>
      </trkpt>
      <trkpt lat="45.41389" lon="5.76948">
        <ele>515.964478</ele>
        <time>2019-09-07T08:48:40.965Z</time>
      </trkpt>
      <trkpt lat="45.41374" lon="5.7695">
        <ele>517.183228</ele>
        <time>2019-09-07T08:48:45.999Z</time>
      </trkpt>
      <trkpt lat="45.41357" lon="5.76951">
        <ele>517.136719</ele>
        <time>2019-09-07T08:48:51.020Z</time>
      </trkpt>
      <trkpt lat="45.41341" lon="5.76954">
        <ele>517.274597</ele>
        <time>2019-09-07T08:48:56.757Z</time>
      </trkpt>
      <trkpt lat="45.41327" lon="5.76964">
        <ele>516.128784</ele>
        <time>2019-09-07T08:49:01.828Z</time>
      </trkpt>
      <trkpt lat="45.41317" lon="5.76991">
        <ele>518.301636</ele>
        <time>2019-09-07T08:49:06.832Z</time>
      </trkpt>
      <trkpt lat="45.41321" lon="5.77018">
        <ele>517.097717</ele>
        <time>2019-09-07T08:49:11.837Z</time>
      </trkpt>
      <trkpt lat="45.41315" lon="5.77033">
        <ele>521.271362</ele>
        <time>2019-09-07T08:49:16.971Z</time>
      </trkpt>
      <trkpt lat="45.41312" lon="5.77044">
        <ele>525.667725</ele>
        <time>2019-09-07T08:49:22.008Z</time>
      </trkpt>
      <trkpt lat="45.41305" lon="5.77051">
        <ele>523.383972</ele>
        <time>2019-09-07T08:49:27.018Z</time>
      </trkpt>
      <trkpt lat="45.41291" lon="5.77051">
        <ele>519.388916</ele>
        <time>2019-09-07T08:49:32.043Z</time>
      </trkpt>
      <trkpt lat="45.41274" lon="5.77051">
        <ele>519.981323</ele>
        <time>2019-09-07T08:49:37.084Z</time>
      </trkpt>
      <trkpt lat="45.41257" lon="5.77049">
        <ele>519.554138</ele>
        <time>2019-09-07T08:49:42.134Z</time>
      </trkpt>
      <trkpt lat="45.41241" lon="5.77048">
        <ele>523.817505</ele>
        <time>2019-09-07T08:49:47.175Z</time>
      </trkpt>
      <trkpt lat="45.41222" lon="5.77039">
        <ele>528.041504</ele>
        <time>2019-09-07T08:49:52.217Z</time>
      </trkpt>
      <trkpt lat="45.41206" lon="5.77032">
        <ele>533.87085</ele>
        <time>2019-09-07T08:49:57.267Z</time>
      </trkpt>
      <trkpt lat="45.4119" lon="5.77027">
        <ele>533.086182</ele>
        <time>2019-09-07T08:50:02.313Z</time>
      </trkpt>
      <trkpt lat="45.41175" lon="5.77027">
        <ele>535.865234</ele>
        <time>2019-09-07T08:50:07.370Z</time>
      </trkpt>
      <trkpt lat="45.41163" lon="5.77026">
        <ele>535.19519</ele>
        <time>2019-09-07T08:50:12.409Z</time>
      </trkpt>
      <trkpt lat="45.41146" lon="5.77024">
        <ele>531.970459</ele>
        <time>2019-09-07T08:50:17.447Z</time>
      </trkpt>
      <trkpt lat="45.41136" lon="5.77023">
        <ele>533.619141</ele>
        <time>2019-09-07T08:50:22.493Z</time>
      </trkpt>
      <trkpt lat="45.41127" lon="5.77023">
        <ele>536.427246</ele>
        <time>2019-09-07T08:50:27.527Z</time>
      </trkpt>
      <trkpt lat="45.4111" lon="5.77026">
        <ele>533.960449</ele>
        <time>2019-09-07T08:50:32.561Z</time>
      </trkpt>
      <trkpt lat="45.41095" lon="5.77024">
        <ele>536.254395</ele>
        <time>2019-09-07T08:50:37.600Z</time>
      </trkpt>
      <trkpt lat="45.41083" lon="5.7702">
        <ele>541.297607</ele>
        <time>2019-09-07T08:50:42.642Z</time>
      </trkpt>
      <trkpt lat="45.41071" lon="5.77017">
        <ele>543.92041</ele>
        <time>2019-09-07T08:50:47.684Z</time>
      </trkpt>
      <trkpt lat="45.41061" lon="5.77017">
        <ele>527.053711</ele>
        <time>2019-09-07T08:50:52.723Z</time>
      </trkpt>
      <trkpt lat="45.4105" lon="5.77017">
        <ele>542.342651</ele>
        <time>2019-09-07T08:50:57.772Z</time>
      </trkpt>
      <trkpt lat="45.41037" lon="5.77015">
        <ele>549.21875</ele>
        <time>2019-09-07T08:51:02.804Z</time>
      </trkpt>
      <trkpt lat="45.41018" lon="5.77015">
        <ele>532.318359</ele>
        <time>2019-09-07T08:51:07.827Z</time>
      </trkpt>
      <trkpt lat="45.41002" lon="5.77018">
        <ele>544.741455</ele>
        <time>2019-09-07T08:51:12.829Z</time>
      </trkpt>
      <trkpt lat="45.40986" lon="5.77021">
        <ele>552.806641</ele>
        <time>2019-09-07T08:51:17.829Z</time>
      </trkpt>
      <trkpt lat="45.40976" lon="5.77026">
        <ele>554.82251</ele>
        <time>2019-09-07T08:51:22.829Z</time>
      </trkpt>
      <trkpt lat="45.4096" lon="5.77038">
        <ele>556.300781</ele>
        <time>2019-09-07T08:51:27.829Z</time>
      </trkpt>
      <trkpt lat="45.40957" lon="5.77042">
        <ele>558.17627</ele>
        <time>2019-09-07T08:51:32.829Z</time>
      </trkpt>
      <trkpt lat="45.40953" lon="5.77028">
        <ele>512.62793</ele>
        <time>2019-09-07T08:51:47.873Z</time>
      </trkpt>
      <trkpt lat="45.40936" lon="5.7702">
        <ele>550.406494</ele>
        <time>2019-09-07T08:51:53.821Z</time>
      </trkpt>
      <trkpt lat="45.40921" lon="5.77014">
        <ele>560.904785</ele>
        <time>2019-09-07T08:51:58.824Z</time>
      </trkpt>
      <trkpt lat="45.40909" lon="5.77007">
        <ele>563.208008</ele>
        <time>2019-09-07T08:52:03.834Z</time>
      </trkpt>
      <trkpt lat="45.40896" lon="5.77">
        <ele>565.767334</ele>
        <time>2019-09-07T08:52:09.627Z</time>
      </trkpt>
      <trkpt lat="45.40884" lon="5.76996">
        <ele>565.460693</ele>
        <time>2019-09-07T08:52:14.674Z</time>
      </trkpt>
      <trkpt lat="45.40872" lon="5.76994">
        <ele>571.451172</ele>
        <time>2019-09-07T08:52:19.712Z</time>
      </trkpt>
      <trkpt lat="45.40856" lon="5.76992">
        <ele>571.114624</ele>
        <time>2019-09-07T08:52:24.760Z</time>
      </trkpt>
      <trkpt lat="45.40843" lon="5.7699">
        <ele>571.255859</ele>
        <time>2019-09-07T08:52:29.808Z</time>
      </trkpt>
      <trkpt lat="45.40825" lon="5.76989">
        <ele>556.260254</ele>
        <time>2019-09-07T08:52:34.824Z</time>
      </trkpt>
      <trkpt lat="45.40811" lon="5.7699">
        <ele>566.309937</ele>
        <time>2019-09-07T08:52:39.826Z</time>
      </trkpt>
      <trkpt lat="45.40797" lon="5.76987">
        <ele>569.353027</ele>
        <time>2019-09-07T08:52:44.826Z</time>
      </trkpt>
      <trkpt lat="45.40784" lon="5.76982">
        <ele>571.473877</ele>
        <time>2019-09-07T08:52:49.828Z</time>
      </trkpt>
      <trkpt lat="45.40772" lon="5.76977">
        <ele>572.830811</ele>
        <time>2019-09-07T08:52:54.836Z</time>
      </trkpt>
      <trkpt lat="45.40765" lon="5.76963">
        <ele>569.287598</ele>
        <time>2019-09-07T08:52:59.836Z</time>
      </trkpt>
      <trkpt lat="45.40757" lon="5.76952">
        <ele>569.233032</ele>
        <time>2019-09-07T08:53:04.836Z</time>
      </trkpt>
      <trkpt lat="45.40749" lon="5.76934">
        <ele>567.556152</ele>
        <time>2019-09-07T08:53:09.838Z</time>
      </trkpt>
      <trkpt lat="45.40741" lon="5.76921">
        <ele>567.025879</ele>
        <time>2019-09-07T08:53:14.838Z</time>
      </trkpt>
      <trkpt lat="45.40734" lon="5.76907">
        <ele>563.662354</ele>
        <time>2019-09-07T08:53:19.838Z</time>
      </trkpt>
      <trkpt lat="45.40729" lon="5.76895">
        <ele>565.497559</ele>
        <time>2019-09-07T08:53:24.838Z</time>
      </trkpt>
      <trkpt lat="45.4073" lon="5.76898">
        <ele>585.456787</ele>
        <time>2019-09-07T08:53:30.291Z</time>
      </trkpt>
      <trkpt lat="45.40728" lon="5.76882">
        <ele>586.48999</ele>
        <time>2019-09-07T08:53:35.330Z</time>
      </trkpt>
      <trkpt lat="45.40728" lon="5.76863">
        <ele>582.983032</ele>
        <time>2019-09-07T08:53:40.396Z</time>
      </trkpt>
      <trkpt lat="45.40725" lon="5.76851">
        <ele>583.892822</ele>
        <time>2019-09-07T08:53:45.441Z</time>
      </trkpt>
      <trkpt lat="45.40717" lon="5.76842">
        <ele>582.298218</ele>
        <time>2019-09-07T08:53:50.477Z</time>
      </trkpt>
      <trkpt lat="45.40715" lon="5.7683">
        <ele>584.905762</ele>
        <time>2019-09-07T08:53:55.513Z</time>
      </trkpt>
      <trkpt lat="45.40709" lon="5.7682">
        <ele>587.173584</ele>
        <time>2019-09-07T08:54:00.545Z</time>
      </trkpt>
      <trkpt lat="45.407" lon="5.76813">
        <ele>588.272949</ele>
        <time>2019-09-07T08:54:05.591Z</time>
      </trkpt>
      <trkpt lat="45.40692" lon="5.76806">
        <ele>589.373291</ele>
        <time>2019-09-07T08:54:10.641Z</time>
      </trkpt>
      <trkpt lat="45.40683" lon="5.76798">
        <ele>591.602539</ele>
        <time>2019-09-07T08:54:15.821Z</time>
      </trkpt>
      <trkpt lat="45.40675" lon="5.76791">
        <ele>596.207397</ele>
        <time>2019-09-07T08:54:20.833Z</time>
      </trkpt>
      <trkpt lat="45.40668" lon="5.76785">
        <ele>598.822021</ele>
        <time>2019-09-07T08:54:25.833Z</time>
      </trkpt>
      <trkpt lat="45.4066" lon="5.7678">
        <ele>599.425659</ele>
        <time>2019-09-07T08:54:30.833Z</time>
      </trkpt>
      <trkpt lat="45.4065" lon="5.76773">
        <ele>601.341309</ele>
        <time>2019-09-07T08:54:35.834Z</time>
      </trkpt>
      <trkpt lat="45.40641" lon="5.76768">
        <ele>606.494751</ele>
        <time>2019-09-07T08:54:40.834Z</time>
      </trkpt>
      <trkpt lat="45.40632" lon="5.76761">
        <ele>607.589478</ele>
        <time>2019-09-07T08:54:45.834Z</time>
      </trkpt>
      <trkpt lat="45.40623" lon="5.76757">
        <ele>610.366943</ele>
        <time>2019-09-07T08:54:51.152Z</time>
      </trkpt>
      <trkpt lat="45.40613" lon="5.76754">
        <ele>614.481445</ele>
        <time>2019-09-07T08:54:56.214Z</time>
      </trkpt>
      <trkpt lat="45.40605" lon="5.7675">
        <ele>618.504517</ele>
        <time>2019-09-07T08:55:01.267Z</time>
      </trkpt>
      <trkpt lat="45.40594" lon="5.76753">
        <ele>615.968262</ele>
        <time>2019-09-07T08:55:06.300Z</time>
      </trkpt>
      <trkpt lat="45.40587" lon="5.76762">
        <ele>616.958618</ele>
        <time>2019-09-07T08:55:11.345Z</time>
      </trkpt>
      <trkpt lat="45.40586" lon="5.76775">
        <ele>616.584473</ele>
        <time>2019-09-07T08:55:16.394Z</time>
      </trkpt>
      <trkpt lat="45.40588" lon="5.76787">
        <ele>615.601685</ele>
        <time>2019-09-07T08:55:21.438Z</time>
      </trkpt>
      <trkpt lat="45.40591" lon="5.76798">
        <ele>614.23877</ele>
        <time>2019-09-07T08:55:26.487Z</time>
      </trkpt>
      <trkpt lat="45.40595" lon="5.76808">
        <ele>614.211914</ele>
        <time>2019-09-07T08:55:31.517Z</time>
      </trkpt>
      <trkpt lat="45.406" lon="5.76821">
        <ele>614.486816</ele>
        <time>2019-09-07T08:55:36.552Z</time>
      </trkpt>
      <trkpt lat="45.40605" lon="5.76834">
        <ele>618.095215</ele>
        <time>2019-09-07T08:55:41.579Z</time>
      </trkpt>
      <trkpt lat="45.40611" lon="5.76851">
        <ele>618.770996</ele>
        <time>2019-09-07T08:55:46.634Z</time>
      </trkpt>
      <trkpt lat="45.40616" lon="5.76865">
        <ele>619.202881</ele>
        <time>2019-09-07T08:55:51.673Z</time>
      </trkpt>
      <trkpt lat="45.40621" lon="5.76877">
        <ele>621.342773</ele>
        <time>2019-09-07T08:55:56.719Z</time>
      </trkpt>
      <trkpt lat="45.40629" lon="5.76888">
        <ele>626.020752</ele>
        <time>2019-09-07T08:56:01.776Z</time>
      </trkpt>
      <trkpt lat="45.4063" lon="5.76905">
        <ele>627.090088</ele>
        <time>2019-09-07T08:56:06.834Z</time>
      </trkpt>
      <trkpt lat="45.40627" lon="5.76911">
        <ele>627.861816</ele>
        <time>2019-09-07T08:56:11.834Z</time>
      </trkpt>
      <trkpt lat="45.40623" lon="5.76909">
        <ele>626.01123</ele>
        <time>2019-09-07T08:56:17.840Z</time>
      </trkpt>
      <trkpt lat="45.40612" lon="5.76896">
        <ele>624.676147</ele>
        <time>2019-09-07T08:56:23.831Z</time>
      </trkpt>
      <trkpt lat="45.40598" lon="5.76887">
        <ele>628.73877</ele>
        <time>2019-09-07T08:56:28.837Z</time>
      </trkpt>
      <trkpt lat="45.40582" lon="5.76881">
        <ele>627.579102</ele>
        <time>2019-09-07T08:56:33.839Z</time>
      </trkpt>
      <trkpt lat="45.40571" lon="5.7687">
        <ele>627.998047</ele>
        <time>2019-09-07T08:56:39.577Z</time>
      </trkpt>
      <trkpt lat="45.40565" lon="5.76867">
        <ele>628.665161</ele>
        <time>2019-09-07T08:56:44.822Z</time>
      </trkpt>
      <trkpt lat="45.40558" lon="5.76868">
        <ele>629.75354</ele>
        <time>2019-09-07T08:56:53.821Z</time>
      </trkpt>
      <trkpt lat="45.40557" lon="5.76866">
        <ele>630.185059</ele>
        <time>2019-09-07T08:57:00.504Z</time>
      </trkpt>
      <trkpt lat="45.40555" lon="5.76863">
        <ele>632.980469</ele>
        <time>2019-09-07T08:57:21.821Z</time>
      </trkpt>
      <trkpt lat="45.40544" lon="5.76867">
        <ele>631.696289</ele>
        <time>2019-09-07T08:57:26.822Z</time>
      </trkpt>
      <trkpt lat="45.40533" lon="5.76865">
        <ele>636.391113</ele>
        <time>2019-09-07T08:57:31.827Z</time>
      </trkpt>
      <trkpt lat="45.40516" lon="5.76861">
        <ele>639.47168</ele>
        <time>2019-09-07T08:57:36.831Z</time>
      </trkpt>
      <trkpt lat="45.40506" lon="5.76856">
        <ele>637.84375</ele>
        <time>2019-09-07T08:57:41.832Z</time>
      </trkpt>
      <trkpt lat="45.40495" lon="5.76854">
        <ele>640.71106</ele>
        <time>2019-09-07T08:57:46.942Z</time>
      </trkpt>
      <trkpt lat="45.40484" lon="5.7685">
        <ele>640.258789</ele>
        <time>2019-09-07T08:57:52.006Z</time>
      </trkpt>
      <trkpt lat="45.40475" lon="5.76852">
        <ele>607.775879</ele>
        <time>2019-09-07T08:57:57.040Z</time>
      </trkpt>
      <trkpt lat="45.40468" lon="5.76862">
        <ele>634.87915</ele>
        <time>2019-09-07T08:58:02.083Z</time>
      </trkpt>
      <trkpt lat="45.40462" lon="5.76868">
        <ele>647.568115</ele>
        <time>2019-09-07T08:58:07.124Z</time>
      </trkpt>
      <trkpt lat="45.4046" lon="5.76877">
        <ele>648.952393</ele>
        <time>2019-09-07T08:58:12.170Z</time>
      </trkpt>
      <trkpt lat="45.40465" lon="5.76884">
        <ele>651.07312</ele>
        <time>2019-09-07T08:58:17.223Z</time>
      </trkpt>
      <trkpt lat="45.40468" lon="5.7689">
        <ele>653.844727</ele>
        <time>2019-09-07T08:58:22.272Z</time>
      </trkpt>
      <trkpt lat="45.4047" lon="5.76901">
        <ele>657.675781</ele>
        <time>2019-09-07T08:58:27.301Z</time>
      </trkpt>
      <trkpt lat="45.40463" lon="5.76903">
        <ele>659.053467</ele>
        <time>2019-09-07T08:58:32.345Z</time>
      </trkpt>
      <trkpt lat="45.40454" lon="5.76903">
        <ele>662.019653</ele>
        <time>2019-09-07T08:58:37.377Z</time>
      </trkpt>
      <trkpt lat="45.40444" lon="5.76904">
        <ele>664.063721</ele>
        <time>2019-09-07T08:58:42.418Z</time>
      </trkpt>
      <trkpt lat="45.40436" lon="5.76901">
        <ele>665.019775</ele>
        <time>2019-09-07T08:58:47.500Z</time>
      </trkpt>
      <trkpt lat="45.40428" lon="5.76901">
        <ele>552.240601</ele>
        <time>2019-09-07T08:58:52.526Z</time>
      </trkpt>
      <trkpt lat="45.40421" lon="5.76904">
        <ele>562.557007</ele>
        <time>2019-09-07T08:58:57.550Z</time>
      </trkpt>
      <trkpt lat="45.40403" lon="5.76904">
        <ele>665.346924</ele>
        <time>2019-09-07T08:59:06.827Z</time>
      </trkpt>
      <trkpt lat="45.4039" lon="5.76895">
        <ele>662.34375</ele>
        <time>2019-09-07T08:59:11.828Z</time>
      </trkpt>
      <trkpt lat="45.40365" lon="5.76892">
        <ele>661.365723</ele>
        <time>2019-09-07T08:59:25.828Z</time>
      </trkpt>
      <trkpt lat="45.40347" lon="5.7688">
        <ele>666.179321</ele>
        <time>2019-09-07T08:59:30.828Z</time>
      </trkpt>
      <trkpt lat="45.40335" lon="5.76876">
        <ele>669.332275</ele>
        <time>2019-09-07T08:59:36.018Z</time>
      </trkpt>
      <trkpt lat="45.4032" lon="5.76873">
        <ele>670.239624</ele>
        <time>2019-09-07T08:59:41.828Z</time>
      </trkpt>
      <trkpt lat="45.40304" lon="5.76868">
        <ele>668.610229</ele>
        <time>2019-09-07T08:59:46.828Z</time>
      </trkpt>
      <trkpt lat="45.40287" lon="5.76858">
        <ele>669.724976</ele>
        <time>2019-09-07T08:59:51.835Z</time>
      </trkpt>
      <trkpt lat="45.40274" lon="5.76848">
        <ele>669.119385</ele>
        <time>2019-09-07T08:59:56.836Z</time>
      </trkpt>
      <trkpt lat="45.40255" lon="5.76844">
        <ele>645.561035</ele>
        <time>2019-09-07T09:00:02.826Z</time>
      </trkpt>
      <trkpt lat="45.40238" lon="5.76841">
        <ele>654.619629</ele>
        <time>2019-09-07T09:00:07.833Z</time>
      </trkpt>
      <trkpt lat="45.40219" lon="5.76842">
        <ele>657.37439</ele>
        <time>2019-09-07T09:00:13.471Z</time>
      </trkpt>
      <trkpt lat="45.40207" lon="5.76842">
        <ele>662.050171</ele>
        <time>2019-09-07T09:00:18.540Z</time>
      </trkpt>
      <trkpt lat="45.40195" lon="5.7684">
        <ele>666.084961</ele>
        <time>2019-09-07T09:00:23.575Z</time>
      </trkpt>
      <trkpt lat="45.40185" lon="5.7684">
        <ele>666.107056</ele>
        <time>2019-09-07T09:00:28.615Z</time>
      </trkpt>
      <trkpt lat="45.40172" lon="5.76842">
        <ele>674.800781</ele>
        <time>2019-09-07T09:00:33.667Z</time>
      </trkpt>
      <trkpt lat="45.40157" lon="5.76841">
        <ele>678.152832</ele>
        <time>2019-09-07T09:00:38.697Z</time>
      </trkpt>
      <trkpt lat="45.40146" lon="5.76838">
        <ele>678.734131</ele>
        <time>2019-09-07T09:00:43.747Z</time>
      </trkpt>
      <trkpt lat="45.40136" lon="5.76835">
        <ele>617.34375</ele>
        <time>2019-09-07T09:00:48.824Z</time>
      </trkpt>
      <trkpt lat="45.40123" lon="5.76826">
        <ele>666.226318</ele>
        <time>2019-09-07T09:00:53.849Z</time>
      </trkpt>
      <trkpt lat="45.40113" lon="5.76819">
        <ele>671.807617</ele>
        <time>2019-09-07T09:00:58.883Z</time>
      </trkpt>
      <trkpt lat="45.40095" lon="5.76806">
        <ele>608.481689</ele>
        <time>2019-09-07T09:01:03.934Z</time>
      </trkpt>
      <trkpt lat="45.40062" lon="5.7679">
        <ele>569.940308</ele>
        <time>2019-09-07T09:01:08.965Z</time>
      </trkpt>
      <trkpt lat="45.4005" lon="5.76788">
        <ele>627.18042</ele>
        <time>2019-09-07T09:01:13.994Z</time>
      </trkpt>
      <trkpt lat="45.40039" lon="5.76777">
        <ele>655.734497</ele>
        <time>2019-09-07T09:01:19.019Z</time>
      </trkpt>
      <trkpt lat="45.40019" lon="5.76765">
        <ele>672.966064</ele>
        <time>2019-09-07T09:01:24.056Z</time>
      </trkpt>
      <trkpt lat="45.40004" lon="5.76746">
        <ele>674.161865</ele>
        <time>2019-09-07T09:01:29.071Z</time>
      </trkpt>
      <trkpt lat="45.39991" lon="5.76732">
        <ele>678.427734</ele>
        <time>2019-09-07T09:01:34.123Z</time>
      </trkpt>
      <trkpt lat="45.39966" lon="5.76735">
        <ele>678.510254</ele>
        <time>2019-09-07T09:01:39.156Z</time>
      </trkpt>
      <trkpt lat="45.3995" lon="5.76752">
        <ele>682.01416</ele>
        <time>2019-09-07T09:01:47.844Z</time>
      </trkpt>
      <trkpt lat="45.39935" lon="5.76757">
        <ele>684.345459</ele>
        <time>2019-09-07T09:01:53.822Z</time>
      </trkpt>
      <trkpt lat="45.39925" lon="5.76753">
        <ele>684.028809</ele>
        <time>2019-09-07T09:01:58.824Z</time>
      </trkpt>
      <trkpt lat="45.39913" lon="5.76747">
        <ele>685.225098</ele>
        <time>2019-09-07T09:02:03.824Z</time>
      </trkpt>
      <trkpt lat="45.39902" lon="5.76746">
        <ele>688.013428</ele>
        <time>2019-09-07T09:02:08.824Z</time>
      </trkpt>
      <trkpt lat="45.39891" lon="5.7674">
        <ele>690.779785</ele>
        <time>2019-09-07T09:02:13.824Z</time>
      </trkpt>
      <trkpt lat="45.39888" lon="5.7673">
        <ele>693.349121</ele>
        <time>2019-09-07T09:02:18.825Z</time>
      </trkpt>
      <trkpt lat="45.39885" lon="5.76725">
        <ele>696.040039</ele>
        <time>2019-09-07T09:02:23.826Z</time>
      </trkpt>
      <trkpt lat="45.39879" lon="5.76722">
        <ele>683.06665</ele>
        <time>2019-09-07T09:03:29.826Z</time>
      </trkpt>
      <trkpt lat="45.39882" lon="5.76715">
        <ele>688.484985</ele>
        <time>2019-09-07T09:03:34.826Z</time>
      </trkpt>
      <trkpt lat="45.39879" lon="5.76714">
        <ele>687.168701</ele>
        <time>2019-09-07T09:03:39.829Z</time>
      </trkpt>
      <trkpt lat="45.39876" lon="5.76714">
        <ele>687.807861</ele>
        <time>2019-09-07T09:03:45.843Z</time>
      </trkpt>
      <trkpt lat="45.39873" lon="5.76715">
        <ele>686.184082</ele>
        <time>2019-09-07T09:03:51.178Z</time>
      </trkpt>
      <trkpt lat="45.39868" lon="5.7671">
        <ele>685.525391</ele>
        <time>2019-09-07T09:03:56.273Z</time>
      </trkpt>
      <trkpt lat="45.39865" lon="5.76706">
        <ele>688.12915</ele>
        <time>2019-09-07T09:04:01.310Z</time>
      </trkpt>
      <trkpt lat="45.39859" lon="5.76704">
        <ele>689.929932</ele>
        <time>2019-09-07T09:04:06.347Z</time>
      </trkpt>
      <trkpt lat="45.3985" lon="5.76701">
        <ele>694.309326</ele>
        <time>2019-09-07T09:04:11.403Z</time>
      </trkpt>
      <trkpt lat="45.3984" lon="5.76702">
        <ele>692.412842</ele>
        <time>2019-09-07T09:04:16.464Z</time>
      </trkpt>
      <trkpt lat="45.39834" lon="5.76696">
        <ele>694.759766</ele>
        <time>2019-09-07T09:04:21.495Z</time>
      </trkpt>
      <trkpt lat="45.39832" lon="5.76692">
        <ele>695.477295</ele>
        <time>2019-09-07T09:04:36.832Z</time>
      </trkpt>
      <trkpt lat="45.39828" lon="5.76687">
        <ele>693.186768</ele>
        <time>2019-09-07T09:04:41.837Z</time>
      </trkpt>
      <trkpt lat="45.39823" lon="5.76682">
        <ele>693.739624</ele>
        <time>2019-09-07T09:04:48.325Z</time>
      </trkpt>
      <trkpt lat="45.39811" lon="5.76674">
        <ele>694.08667</ele>
        <time>2019-09-07T09:04:53.825Z</time>
      </trkpt>
      <trkpt lat="45.3981" lon="5.76673">
        <ele>697.371582</ele>
        <time>2019-09-07T09:05:02.945Z</time>
      </trkpt>
      <trkpt lat="45.3979" lon="5.76657">
        <ele>696.76123</ele>
        <time>2019-09-07T09:05:07.965Z</time>
      </trkpt>
      <trkpt lat="45.3978" lon="5.76643">
        <ele>698.455078</ele>
        <time>2019-09-07T09:05:12.995Z</time>
      </trkpt>
      <trkpt lat="45.39779" lon="5.76631">
        <ele>702.728516</ele>
        <time>2019-09-07T09:05:18.030Z</time>
      </trkpt>
      <trkpt lat="45.39779" lon="5.76629">
        <ele>702.073975</ele>
        <time>2019-09-07T09:05:23.070Z</time>
      </trkpt>
      <trkpt lat="45.39775" lon="5.76619">
        <ele>704.81665</ele>
        <time>2019-09-07T09:06:10.829Z</time>
      </trkpt>
      <trkpt lat="45.39781" lon="5.76612">
        <ele>707.904053</ele>
        <time>2019-09-07T09:08:49.830Z</time>
      </trkpt>
      <trkpt lat="45.39777" lon="5.76613">
        <ele>708.455322</ele>
        <time>2019-09-07T09:08:54.854Z</time>
      </trkpt>
      <trkpt lat="45.3977" lon="5.76614">
        <ele>707.991943</ele>
        <time>2019-09-07T09:08:59.854Z</time>
      </trkpt>
      <trkpt lat="45.39767" lon="5.76618">
        <ele>704.350098</ele>
        <time>2019-09-07T09:09:06.826Z</time>
      </trkpt>
      <trkpt lat="45.39766" lon="5.76623">
        <ele>704.505615</ele>
        <time>2019-09-07T09:09:21.819Z</time>
      </trkpt>
      <trkpt lat="45.39764" lon="5.7662">
        <ele>706.436646</ele>
        <time>2019-09-07T09:09:26.827Z</time>
      </trkpt>
      <trkpt lat="45.39758" lon="5.7662">
        <ele>707.385986</ele>
        <time>2019-09-07T09:09:31.827Z</time>
      </trkpt>
      <trkpt lat="45.39756" lon="5.76619">
        <ele>706.784058</ele>
        <time>2019-09-07T09:09:36.833Z</time>
      </trkpt>
      <trkpt lat="45.39749" lon="5.76625">
        <ele>703.387695</ele>
        <time>2019-09-07T09:10:01.829Z</time>
      </trkpt>
      <trkpt lat="45.3973" lon="5.76615">
        <ele>694.02002</ele>
        <time>2019-09-07T09:10:06.836Z</time>
      </trkpt>
      <trkpt lat="45.39716" lon="5.76615">
        <ele>693.198486</ele>
        <time>2019-09-07T09:10:11.836Z</time>
      </trkpt>
      <trkpt lat="45.39705" lon="5.76622">
        <ele>689.886597</ele>
        <time>2019-09-07T09:10:16.836Z</time>
      </trkpt>
      <trkpt lat="45.39684" lon="5.76624">
        <ele>690.727539</ele>
        <time>2019-09-07T09:10:21.836Z</time>
      </trkpt>
      <trkpt lat="45.39673" lon="5.76626">
        <ele>691.314453</ele>
        <time>2019-09-07T09:10:26.838Z</time>
      </trkpt>
      <trkpt lat="45.39663" lon="5.76633">
        <ele>689.930664</ele>
        <time>2019-09-07T09:10:31.838Z</time>
      </trkpt>
      <trkpt lat="45.39641" lon="5.76643">
        <ele>689.751343</ele>
        <time>2019-09-07T09:10:36.838Z</time>
      </trkpt>
      <trkpt lat="45.39629" lon="5.76641">
        <ele>689.856201</ele>
        <time>2019-09-07T09:10:41.838Z</time>
      </trkpt>
      <trkpt lat="45.39613" lon="5.76644">
        <ele>689.843262</ele>
        <time>2019-09-07T09:10:47.704Z</time>
      </trkpt>
      <trkpt lat="45.39602" lon="5.76628">
        <ele>691.568115</ele>
        <time>2019-09-07T09:10:52.753Z</time>
      </trkpt>
      <trkpt lat="45.39604" lon="5.76608">
        <ele>694.709106</ele>
        <time>2019-09-07T09:10:57.823Z</time>
      </trkpt>
      <trkpt lat="45.396" lon="5.76576">
        <ele>693.914795</ele>
        <time>2019-09-07T09:11:02.828Z</time>
      </trkpt>
      <trkpt lat="45.39603" lon="5.76547">
        <ele>692.411743</ele>
        <time>2019-09-07T09:11:07.828Z</time>
      </trkpt>
      <trkpt lat="45.39598" lon="5.76541">
        <ele>691.657715</ele>
        <time>2019-09-07T09:11:12.852Z</time>
      </trkpt>
      <trkpt lat="45.39597" lon="5.76531">
        <ele>681.789429</ele>
        <time>2019-09-07T09:11:49.822Z</time>
      </trkpt>
      <trkpt lat="45.39589" lon="5.76513">
        <ele>580.325684</ele>
        <time>2019-09-07T09:11:54.825Z</time>
      </trkpt>
      <trkpt lat="45.39568" lon="5.76488">
        <ele>694.035645</ele>
        <time>2019-09-07T09:11:59.825Z</time>
      </trkpt>
      <trkpt lat="45.3956" lon="5.7647">
        <ele>696.469971</ele>
        <time>2019-09-07T09:12:04.834Z</time>
      </trkpt>
      <trkpt lat="45.39539" lon="5.76446">
        <ele>698.543457</ele>
        <time>2019-09-07T09:12:10.825Z</time>
      </trkpt>
      <trkpt lat="45.39531" lon="5.76436">
        <ele>608.540405</ele>
        <time>2019-09-07T09:12:15.840Z</time>
      </trkpt>
      <trkpt lat="45.39528" lon="5.7641">
        <ele>695.644287</ele>
        <time>2019-09-07T09:12:22.818Z</time>
      </trkpt>
      <trkpt lat="45.39518" lon="5.76357">
        <ele>688.698486</ele>
        <time>2019-09-07T09:12:27.821Z</time>
      </trkpt>
      <trkpt lat="45.39513" lon="5.76313">
        <ele>684.643799</ele>
        <time>2019-09-07T09:12:32.824Z</time>
      </trkpt>
      <trkpt lat="45.39493" lon="5.76275">
        <ele>678.169678</ele>
        <time>2019-09-07T09:12:37.871Z</time>
      </trkpt>
      <trkpt lat="45.39474" lon="5.76222">
        <ele>676.009033</ele>
        <time>2019-09-07T09:12:43.827Z</time>
      </trkpt>
      <trkpt lat="45.39482" lon="5.76177">
        <ele>676.925781</ele>
        <time>2019-09-07T09:12:48.831Z</time>
      </trkpt>
      <trkpt lat="45.39478" lon="5.76145">
        <ele>609.278687</ele>
        <time>2019-09-07T09:12:53.831Z</time>
      </trkpt>
      <trkpt lat="45.39465" lon="5.76112">
        <ele>655.486084</ele>
        <time>2019-09-07T09:12:58.831Z</time>
      </trkpt>
      <trkpt lat="45.39458" lon="5.76079">
        <ele>666.543213</ele>
        <time>2019-09-07T09:13:03.831Z</time>
      </trkpt>
      <trkpt lat="45.39449" lon="5.76061">
        <ele>669.490234</ele>
        <time>2019-09-07T09:13:08.831Z</time>
      </trkpt>
      <trkpt lat="45.39447" lon="5.76062">
        <ele>606.05896</ele>
        <time>2019-09-07T09:13:13.831Z</time>
      </trkpt>
      <trkpt lat="45.39447" lon="5.76059">
        <ele>669.555176</ele>
        <time>2019-09-07T09:13:44.853Z</time>
      </trkpt>
      <trkpt lat="45.39449" lon="5.76058">
        <ele>627.143921</ele>
        <time>2019-09-07T09:13:49.853Z</time>
      </trkpt>
      <trkpt lat="45.39447" lon="5.76061">
        <ele>656.598511</ele>
        <time>2019-09-07T09:14:13.827Z</time>
      </trkpt>
      <trkpt lat="45.39444" lon="5.76067">
        <ele>596.199829</ele>
        <time>2019-09-07T09:14:18.827Z</time>
      </trkpt>
      <trkpt lat="45.39443" lon="5.76069">
        <ele>617.433594</ele>
        <time>2019-09-07T09:14:23.828Z</time>
      </trkpt>
      <trkpt lat="45.39441" lon="5.76072">
        <ele>669.711182</ele>
        <time>2019-09-07T09:14:35.818Z</time>
      </trkpt>
      <trkpt lat="45.39435" lon="5.76076">
        <ele>662.709229</ele>
        <time>2019-09-07T09:15:03.813Z</time>
      </trkpt>
      <trkpt lat="45.39429" lon="5.76077">
        <ele>671.441162</ele>
        <time>2019-09-07T09:15:43.843Z</time>
      </trkpt>
      <trkpt lat="45.39422" lon="5.76079">
        <ele>673.578491</ele>
        <time>2019-09-07T09:15:57.825Z</time>
      </trkpt>
      <trkpt lat="45.39418" lon="5.76084">
        <ele>675.762451</ele>
        <time>2019-09-07T09:16:27.831Z</time>
      </trkpt>
      <trkpt lat="45.3941" lon="5.76084">
        <ele>678.466309</ele>
        <time>2019-09-07T09:16:43.830Z</time>
      </trkpt>
      <trkpt lat="45.39403" lon="5.7609">
        <ele>653.968994</ele>
        <time>2019-09-07T09:16:57.829Z</time>
      </trkpt>
      <trkpt lat="45.39402" lon="5.76096">
        <ele>652.908936</ele>
        <time>2019-09-07T09:17:03.818Z</time>
      </trkpt>
      <trkpt lat="45.394" lon="5.76099">
        <ele>683.449219</ele>
        <time>2019-09-07T09:17:29.836Z</time>
      </trkpt>
      <trkpt lat="45.39398" lon="5.76103">
        <ele>683.129028</ele>
        <time>2019-09-07T09:17:34.843Z</time>
      </trkpt>
      <trkpt lat="45.39397" lon="5.76109">
        <ele>662.210205</ele>
        <time>2019-09-07T09:17:42.814Z</time>
      </trkpt>
      <trkpt lat="45.39398" lon="5.76115">
        <ele>685.570801</ele>
        <time>2019-09-07T09:18:12.828Z</time>
      </trkpt>
      <trkpt lat="45.394" lon="5.76119">
        <ele>681.403809</ele>
        <time>2019-09-07T09:18:27.824Z</time>
      </trkpt>
      <trkpt lat="45.39402" lon="5.76125">
        <ele>691.572754</ele>
        <time>2019-09-07T09:18:45.832Z</time>
      </trkpt>
      <trkpt lat="45.39401" lon="5.76133">
        <ele>697.53418</ele>
        <time>2019-09-07T09:19:05.833Z</time>
      </trkpt>
      <trkpt lat="45.39397" lon="5.76132">
        <ele>699.291016</ele>
        <time>2019-09-07T09:19:11.823Z</time>
      </trkpt>
      <trkpt lat="45.39394" lon="5.76131">
        <ele>699.708008</ele>
        <time>2019-09-07T09:19:18.834Z</time>
      </trkpt>
      <trkpt lat="45.39392" lon="5.76132">
        <ele>699.21582</ele>
        <time>2019-09-07T09:19:23.842Z</time>
      </trkpt>
      <trkpt lat="45.3939" lon="5.76133">
        <ele>698.07666</ele>
        <time>2019-09-07T09:19:29.710Z</time>
      </trkpt>
      <trkpt lat="45.39385" lon="5.76133">
        <ele>702.088745</ele>
        <time>2019-09-07T09:19:34.738Z</time>
      </trkpt>
      <trkpt lat="45.3938" lon="5.76134">
        <ele>698.848633</ele>
        <time>2019-09-07T09:19:39.798Z</time>
      </trkpt>
      <trkpt lat="45.39376" lon="5.7613">
        <ele>703.244019</ele>
        <time>2019-09-07T09:19:44.851Z</time>
      </trkpt>
      <trkpt lat="45.39375" lon="5.76132">
        <ele>704.210327</ele>
        <time>2019-09-07T09:19:49.896Z</time>
      </trkpt>
      <trkpt lat="45.39375" lon="5.76134">
        <ele>683.038818</ele>
        <time>2019-09-07T09:19:56.841Z</time>
      </trkpt>
      <trkpt lat="45.39379" lon="5.76134">
        <ele>694.581543</ele>
        <time>2019-09-07T09:20:02.511Z</time>
      </trkpt>
      <trkpt lat="45.39381" lon="5.76135">
        <ele>699.453613</ele>
        <time>2019-09-07T09:20:10.099Z</time>
      </trkpt>
      <trkpt lat="45.39382" lon="5.76137">
        <ele>700.435059</ele>
        <time>2019-09-07T09:20:15.134Z</time>
      </trkpt>
      <trkpt lat="45.39379" lon="5.76138">
        <ele>701.542725</ele>
        <time>2019-09-07T09:20:20.825Z</time>
      </trkpt>
      <trkpt lat="45.39377" lon="5.7614">
        <ele>701.374512</ele>
        <time>2019-09-07T09:20:25.826Z</time>
      </trkpt>
      <trkpt lat="45.39377" lon="5.76145">
        <ele>699.859131</ele>
        <time>2019-09-07T09:20:30.827Z</time>
      </trkpt>
      <trkpt lat="45.39381" lon="5.76146">
        <ele>701.894775</ele>
        <time>2019-09-07T09:20:35.827Z</time>
      </trkpt>
      <trkpt lat="45.39383" lon="5.76159">
        <ele>703.38501</ele>
        <time>2019-09-07T09:20:40.849Z</time>
      </trkpt>
      <trkpt lat="45.39385" lon="5.76163">
        <ele>707.941895</ele>
        <time>2019-09-07T09:20:46.122Z</time>
      </trkpt>
      <trkpt lat="45.39384" lon="5.76166">
        <ele>711.169556</ele>
        <time>2019-09-07T09:20:51.174Z</time>
      </trkpt>
      <trkpt lat="45.39384" lon="5.76172">
        <ele>709.809326</ele>
        <time>2019-09-07T09:20:56.260Z</time>
      </trkpt>
      <trkpt lat="45.39383" lon="5.76178">
        <ele>710.247803</ele>
        <time>2019-09-07T09:21:01.261Z</time>
      </trkpt>
      <trkpt lat="45.39382" lon="5.76182">
        <ele>710.05957</ele>
        <time>2019-09-07T09:21:06.323Z</time>
      </trkpt>
      <trkpt lat="45.3938" lon="5.76182">
        <ele>712.310181</ele>
        <time>2019-09-07T09:21:11.376Z</time>
      </trkpt>
      <trkpt lat="45.39377" lon="5.76178">
        <ele>713.869141</ele>
        <time>2019-09-07T09:21:16.412Z</time>
      </trkpt>
      <trkpt lat="45.39378" lon="5.76176">
        <ele>717.588135</ele>
        <time>2019-09-07T09:21:23.975Z</time>
      </trkpt>
      <trkpt lat="45.39376" lon="5.76177">
        <ele>716.012085</ele>
        <time>2019-09-07T09:21:29.021Z</time>
      </trkpt>
      <trkpt lat="45.39375" lon="5.76177">
        <ele>717.142212</ele>
        <time>2019-09-07T09:21:35.843Z</time>
      </trkpt>
      <trkpt lat="45.39373" lon="5.76177">
        <ele>717.755493</ele>
        <time>2019-09-07T09:21:48.843Z</time>
      </trkpt>
      <trkpt lat="45.39369" lon="5.76179">
        <ele>718.182373</ele>
        <time>2019-09-07T09:21:54.258Z</time>
      </trkpt>
      <trkpt lat="45.39367" lon="5.7618">
        <ele>717.725586</ele>
        <time>2019-09-07T09:21:59.291Z</time>
      </trkpt>
      <trkpt lat="45.39365" lon="5.76178">
        <ele>717.697021</ele>
        <time>2019-09-07T09:22:04.338Z</time>
      </trkpt>
      <trkpt lat="45.39363" lon="5.76178">
        <ele>717.27417</ele>
        <time>2019-09-07T09:22:11.816Z</time>
      </trkpt>
      <trkpt lat="45.39361" lon="5.76177">
        <ele>718.592773</ele>
        <time>2019-09-07T09:22:16.837Z</time>
      </trkpt>
      <trkpt lat="45.3936" lon="5.76172">
        <ele>717.450073</ele>
        <time>2019-09-07T09:22:21.990Z</time>
      </trkpt>
      <trkpt lat="45.39361" lon="5.7617">
        <ele>717.994141</ele>
        <time>2019-09-07T09:22:29.558Z</time>
      </trkpt>
      <trkpt lat="45.39361" lon="5.76167">
        <ele>726.879883</ele>
        <time>2019-09-07T09:22:45.705Z</time>
      </trkpt>
      <trkpt lat="45.39363" lon="5.76174">
        <ele>717.934814</ele>
        <time>2019-09-07T09:24:21.829Z</time>
      </trkpt>
      <trkpt lat="45.3935" lon="5.76175">
        <ele>715.832031</ele>
        <time>2019-09-07T09:25:37.051Z</time>
      </trkpt>
      <trkpt lat="45.39351" lon="5.76175">
        <ele>723.599121</ele>
        <time>2019-09-07T09:25:50.824Z</time>
      </trkpt>
      <trkpt lat="45.39347" lon="5.76174">
        <ele>706.660889</ele>
        <time>2019-09-07T09:26:52.815Z</time>
      </trkpt>
      <trkpt lat="45.39344" lon="5.76173">
        <ele>717.494019</ele>
        <time>2019-09-07T09:26:57.823Z</time>
      </trkpt>
      <trkpt lat="45.39338" lon="5.76168">
        <ele>732.257446</ele>
        <time>2019-09-07T09:27:12.815Z</time>
      </trkpt>
      <trkpt lat="45.3933" lon="5.76169">
        <ele>732.406982</ele>
        <time>2019-09-07T09:28:19.823Z</time>
      </trkpt>
      <trkpt lat="45.39329" lon="5.76178">
        <ele>736.494141</ele>
        <time>2019-09-07T09:28:32.817Z</time>
      </trkpt>
      <trkpt lat="45.3933" lon="5.76194">
        <ele>737.179321</ele>
        <time>2019-09-07T09:28:37.825Z</time>
      </trkpt>
      <trkpt lat="45.39333" lon="5.76205">
        <ele>734.981445</ele>
        <time>2019-09-07T09:28:43.818Z</time>
      </trkpt>
      <trkpt lat="45.39334" lon="5.7621">
        <ele>735.362915</ele>
        <time>2019-09-07T09:28:48.818Z</time>
      </trkpt>
      <trkpt lat="45.39336" lon="5.76215">
        <ele>734.730103</ele>
        <time>2019-09-07T09:29:29.818Z</time>
      </trkpt>
      <trkpt lat="45.39338" lon="5.76222">
        <ele>736.208374</ele>
        <time>2019-09-07T09:29:34.818Z</time>
      </trkpt>
      <trkpt lat="45.39339" lon="5.76231">
        <ele>740.139404</ele>
        <time>2019-09-07T09:29:50.168Z</time>
      </trkpt>
      <trkpt lat="45.39338" lon="5.76235">
        <ele>739.828857</ele>
        <time>2019-09-07T09:29:55.205Z</time>
      </trkpt>
      <trkpt lat="45.39338" lon="5.76237">
        <ele>696.54895</ele>
        <time>2019-09-07T09:30:10.823Z</time>
      </trkpt>
      <trkpt lat="45.39338" lon="5.76236">
        <ele>736.713135</ele>
        <time>2019-09-07T09:30:19.819Z</time>
      </trkpt>
      <trkpt lat="45.39344" lon="5.76235">
        <ele>737.585449</ele>
        <time>2019-09-07T09:30:24.822Z</time>
      </trkpt>
      <trkpt lat="45.39349" lon="5.76242">
        <ele>738.575317</ele>
        <time>2019-09-07T09:30:29.837Z</time>
      </trkpt>
      <trkpt lat="45.39351" lon="5.76246">
        <ele>741.837646</ele>
        <time>2019-09-07T09:30:35.832Z</time>
      </trkpt>
      <trkpt lat="45.39355" lon="5.76251">
        <ele>742.931763</ele>
        <time>2019-09-07T09:30:40.832Z</time>
      </trkpt>
      <trkpt lat="45.3936" lon="5.76257">
        <ele>739.885986</ele>
        <time>2019-09-07T09:31:23.831Z</time>
      </trkpt>
      <trkpt lat="45.39361" lon="5.76264">
        <ele>741.932007</ele>
        <time>2019-09-07T09:31:29.836Z</time>
      </trkpt>
      <trkpt lat="45.39362" lon="5.76265">
        <ele>745.739746</ele>
        <time>2019-09-07T09:31:38.872Z</time>
      </trkpt>
      <trkpt lat="45.39368" lon="5.76282">
        <ele>743.510498</ele>
        <time>2019-09-07T09:31:44.831Z</time>
      </trkpt>
      <trkpt lat="45.39373" lon="5.76289">
        <ele>748.43335</ele>
        <time>2019-09-07T09:31:50.826Z</time>
      </trkpt>
      <trkpt lat="45.39378" lon="5.76296">
        <ele>748.693115</ele>
        <time>2019-09-07T09:32:01.825Z</time>
      </trkpt>
      <trkpt lat="45.39376" lon="5.76296">
        <ele>749.794922</ele>
        <time>2019-09-07T09:32:06.831Z</time>
      </trkpt>
      <trkpt lat="45.39371" lon="5.76299">
        <ele>749.202148</ele>
        <time>2019-09-07T09:32:11.835Z</time>
      </trkpt>
      <trkpt lat="45.39367" lon="5.76298">
        <ele>751.708862</ele>
        <time>2019-09-07T09:32:16.876Z</time>
      </trkpt>
      <trkpt lat="45.39368" lon="5.76294">
        <ele>723.434082</ele>
        <time>2019-09-07T09:32:25.322Z</time>
      </trkpt>
      <trkpt lat="45.39364" lon="5.76294">
        <ele>704.150146</ele>
        <time>2019-09-07T09:32:30.366Z</time>
      </trkpt>
      <trkpt lat="45.39365" lon="5.76291">
        <ele>690.111572</ele>
        <time>2019-09-07T09:32:36.829Z</time>
      </trkpt>
      <trkpt lat="45.39367" lon="5.76288">
        <ele>735.905029</ele>
        <time>2019-09-07T09:32:41.840Z</time>
      </trkpt>
      <trkpt lat="45.39351" lon="5.76288">
        <ele>762.819336</ele>
        <time>2019-09-07T09:33:26.820Z</time>
      </trkpt>
      <trkpt lat="45.39347" lon="5.76287">
        <ele>750.52832</ele>
        <time>2019-09-07T09:33:50.817Z</time>
      </trkpt>
      <trkpt lat="45.39338" lon="5.76271">
        <ele>759.212158</ele>
        <time>2019-09-07T09:33:55.827Z</time>
      </trkpt>
      <trkpt lat="45.3933" lon="5.7626">
        <ele>758.427734</ele>
        <time>2019-09-07T09:34:00.827Z</time>
      </trkpt>
      <trkpt lat="45.3932" lon="5.76251">
        <ele>759.581543</ele>
        <time>2019-09-07T09:34:05.827Z</time>
      </trkpt>
      <trkpt lat="45.3931" lon="5.76244">
        <ele>758.911377</ele>
        <time>2019-09-07T09:34:10.828Z</time>
      </trkpt>
      <trkpt lat="45.39303" lon="5.76231">
        <ele>759.491699</ele>
        <time>2019-09-07T09:34:15.830Z</time>
      </trkpt>
      <trkpt lat="45.3929" lon="5.76219">
        <ele>762.481201</ele>
        <time>2019-09-07T09:34:20.830Z</time>
      </trkpt>
      <trkpt lat="45.39285" lon="5.76202">
        <ele>761.797607</ele>
        <time>2019-09-07T09:34:26.826Z</time>
      </trkpt>
      <trkpt lat="45.39281" lon="5.76193">
        <ele>767.081665</ele>
        <time>2019-09-07T09:34:31.831Z</time>
      </trkpt>
      <trkpt lat="45.39274" lon="5.7618">
        <ele>661.17395</ele>
        <time>2019-09-07T09:34:36.831Z</time>
      </trkpt>
      <trkpt lat="45.39264" lon="5.7617">
        <ele>709.910034</ele>
        <time>2019-09-07T09:34:41.832Z</time>
      </trkpt>
      <trkpt lat="45.39255" lon="5.76156">
        <ele>740.585693</ele>
        <time>2019-09-07T09:34:46.832Z</time>
      </trkpt>
      <trkpt lat="45.39239" lon="5.76134">
        <ele>747.613281</ele>
        <time>2019-09-07T09:34:52.839Z</time>
      </trkpt>
      <trkpt lat="45.39225" lon="5.76113">
        <ele>752.932373</ele>
        <time>2019-09-07T09:34:57.865Z</time>
      </trkpt>
      <trkpt lat="45.39213" lon="5.76098">
        <ele>758.536133</ele>
        <time>2019-09-07T09:35:02.936Z</time>
      </trkpt>
      <trkpt lat="45.39206" lon="5.76093">
        <ele>756.540039</ele>
        <time>2019-09-07T09:35:07.987Z</time>
      </trkpt>
      <trkpt lat="45.39199" lon="5.76084">
        <ele>758.173096</ele>
        <time>2019-09-07T09:35:13.013Z</time>
      </trkpt>
      <trkpt lat="45.3919" lon="5.76075">
        <ele>759.497437</ele>
        <time>2019-09-07T09:35:18.112Z</time>
      </trkpt>
      <trkpt lat="45.39183" lon="5.76071">
        <ele>761.016357</ele>
        <time>2019-09-07T09:35:23.151Z</time>
      </trkpt>
      <trkpt lat="45.39177" lon="5.76065">
        <ele>764.852051</ele>
        <time>2019-09-07T09:35:28.195Z</time>
      </trkpt>
      <trkpt lat="45.3917" lon="5.76062">
        <ele>764.712158</ele>
        <time>2019-09-07T09:35:33.834Z</time>
      </trkpt>
      <trkpt lat="45.39161" lon="5.76058">
        <ele>765.203857</ele>
        <time>2019-09-07T09:35:38.834Z</time>
      </trkpt>
      <trkpt lat="45.39149" lon="5.76052">
        <ele>764.469727</ele>
        <time>2019-09-07T09:35:43.842Z</time>
      </trkpt>
      <trkpt lat="45.39134" lon="5.76047">
        <ele>765.938232</ele>
        <time>2019-09-07T09:35:49.117Z</time>
      </trkpt>
      <trkpt lat="45.39123" lon="5.76038">
        <ele>762.480469</ele>
        <time>2019-09-07T09:35:54.139Z</time>
      </trkpt>
      <trkpt lat="45.39126" lon="5.76039">
        <ele>687.945801</ele>
        <time>2019-09-07T09:36:36.826Z</time>
      </trkpt>
      <trkpt lat="45.39141" lon="5.76045">
        <ele>741.785522</ele>
        <time>2019-09-07T09:36:41.831Z</time>
      </trkpt>
      <trkpt lat="45.39149" lon="5.76047">
        <ele>750.771729</ele>
        <time>2019-09-07T09:36:46.841Z</time>
      </trkpt>
      <trkpt lat="45.39159" lon="5.76049">
        <ele>760.358154</ele>
        <time>2019-09-07T09:36:56.831Z</time>
      </trkpt>
      <trkpt lat="45.39164" lon="5.76052">
        <ele>764.967529</ele>
        <time>2019-09-07T09:37:09.550Z</time>
      </trkpt>
      <trkpt lat="45.39169" lon="5.76054">
        <ele>757.526611</ele>
        <time>2019-09-07T09:37:24.823Z</time>
      </trkpt>
      <trkpt lat="45.39178" lon="5.76066">
        <ele>760.367798</ele>
        <time>2019-09-07T09:37:30.831Z</time>
      </trkpt>
      <trkpt lat="45.39188" lon="5.76073">
        <ele>758.96582</ele>
        <time>2019-09-07T09:37:35.831Z</time>
      </trkpt>
      <trkpt lat="45.39195" lon="5.76077">
        <ele>714.507568</ele>
        <time>2019-09-07T09:37:43.833Z</time>
      </trkpt>
      <trkpt lat="45.39196" lon="5.76077">
        <ele>756.985596</ele>
        <time>2019-09-07T09:37:54.831Z</time>
      </trkpt>
      <trkpt lat="45.39197" lon="5.76078">
        <ele>758.87915</ele>
        <time>2019-09-07T09:38:01.826Z</time>
      </trkpt>
      <trkpt lat="45.39197" lon="5.76083">
        <ele>762.664673</ele>
        <time>2019-09-07T09:38:06.845Z</time>
      </trkpt>
      <trkpt lat="45.39197" lon="5.76078">
        <ele>762.221191</ele>
        <time>2019-09-07T09:38:12.591Z</time>
      </trkpt>
      <trkpt lat="45.39191" lon="5.76072">
        <ele>762.133545</ele>
        <time>2019-09-07T09:38:17.624Z</time>
      </trkpt>
      <trkpt lat="45.3919" lon="5.76069">
        <ele>763.691406</ele>
        <time>2019-09-07T09:38:24.830Z</time>
      </trkpt>
      <trkpt lat="45.39188" lon="5.76068">
        <ele>763.274536</ele>
        <time>2019-09-07T09:38:32.816Z</time>
      </trkpt>
      <trkpt lat="45.39184" lon="5.76064">
        <ele>761.627075</ele>
        <time>2019-09-07T09:38:37.825Z</time>
      </trkpt>
      <trkpt lat="45.39181" lon="5.7606">
        <ele>734.414551</ele>
        <time>2019-09-07T09:38:48.818Z</time>
      </trkpt>
      <trkpt lat="45.39179" lon="5.76066">
        <ele>760.450562</ele>
        <time>2019-09-07T09:39:24.816Z</time>
      </trkpt>
      <trkpt lat="45.39165" lon="5.76056">
        <ele>760.001465</ele>
        <time>2019-09-07T09:39:29.826Z</time>
      </trkpt>
      <trkpt lat="45.39153" lon="5.76051">
        <ele>758.510742</ele>
        <time>2019-09-07T09:39:34.827Z</time>
      </trkpt>
      <trkpt lat="45.39147" lon="5.76049">
        <ele>759.586182</ele>
        <time>2019-09-07T09:39:40.950Z</time>
      </trkpt>
      <trkpt lat="45.39128" lon="5.7604">
        <ele>757.97876</ele>
        <time>2019-09-07T09:39:45.985Z</time>
      </trkpt>
      <trkpt lat="45.39116" lon="5.76034">
        <ele>758.9104</ele>
        <time>2019-09-07T09:39:51.038Z</time>
      </trkpt>
      <trkpt lat="45.39108" lon="5.76031">
        <ele>760.451416</ele>
        <time>2019-09-07T09:39:59.828Z</time>
      </trkpt>
      <trkpt lat="45.39094" lon="5.76018">
        <ele>761.075195</ele>
        <time>2019-09-07T09:40:04.852Z</time>
      </trkpt>
      <trkpt lat="45.39081" lon="5.76008">
        <ele>761.595459</ele>
        <time>2019-09-07T09:40:10.827Z</time>
      </trkpt>
      <trkpt lat="45.39071" lon="5.75997">
        <ele>764.771851</ele>
        <time>2019-09-07T09:40:15.827Z</time>
      </trkpt>
      <trkpt lat="45.3906" lon="5.75987">
        <ele>768.72168</ele>
        <time>2019-09-07T09:40:21.277Z</time>
      </trkpt>
      <trkpt lat="45.39053" lon="5.75981">
        <ele>766.152832</ele>
        <time>2019-09-07T09:40:28.814Z</time>
      </trkpt>
      <trkpt lat="45.39031" lon="5.75955">
        <ele>764.38916</ele>
        <time>2019-09-07T09:40:33.821Z</time>
      </trkpt>
      <trkpt lat="45.3902" lon="5.75943">
        <ele>758.362305</ele>
        <time>2019-09-07T09:40:38.835Z</time>
      </trkpt>
      <trkpt lat="45.39001" lon="5.75915">
        <ele>755.978149</ele>
        <time>2019-09-07T09:40:43.991Z</time>
      </trkpt>
      <trkpt lat="45.38987" lon="5.75891">
        <ele>753.089111</ele>
        <time>2019-09-07T09:40:49.050Z</time>
      </trkpt>
      <trkpt lat="45.38978" lon="5.75875">
        <ele>754.643066</ele>
        <time>2019-09-07T09:40:54.084Z</time>
      </trkpt>
      <trkpt lat="45.38975" lon="5.75866">
        <ele>751.259033</ele>
        <time>2019-09-07T09:40:59.131Z</time>
      </trkpt>
      <trkpt lat="45.3896" lon="5.7585">
        <ele>743.887695</ele>
        <time>2019-09-07T09:41:04.196Z</time>
      </trkpt>
      <trkpt lat="45.38951" lon="5.75838">
        <ele>736.499512</ele>
        <time>2019-09-07T09:41:09.236Z</time>
      </trkpt>
      <trkpt lat="45.38938" lon="5.75826">
        <ele>738.157349</ele>
        <time>2019-09-07T09:41:14.286Z</time>
      </trkpt>
      <trkpt lat="45.38933" lon="5.7582">
        <ele>737.907959</ele>
        <time>2019-09-07T09:41:19.329Z</time>
      </trkpt>
      <trkpt lat="45.38925" lon="5.7581">
        <ele>735.422607</ele>
        <time>2019-09-07T09:41:42.823Z</time>
      </trkpt>
      <trkpt lat="45.38916" lon="5.75793">
        <ele>734.983154</ele>
        <time>2019-09-07T09:43:10.826Z</time>
      </trkpt>
      <trkpt lat="45.38889" lon="5.75748">
        <ele>735.724243</ele>
        <time>2019-09-07T09:43:15.829Z</time>
      </trkpt>
      <trkpt lat="45.38882" lon="5.75721">
        <ele>729.612793</ele>
        <time>2019-09-07T09:43:20.832Z</time>
      </trkpt>
      <trkpt lat="45.38905" lon="5.75713">
        <ele>727.379639</ele>
        <time>2019-09-07T09:43:25.832Z</time>
      </trkpt>
      <trkpt lat="45.38944" lon="5.75705">
        <ele>715.507324</ele>
        <time>2019-09-07T09:43:30.834Z</time>
      </trkpt>
      <trkpt lat="45.38988" lon="5.7569">
        <ele>708.575562</ele>
        <time>2019-09-07T09:43:36.828Z</time>
      </trkpt>
      <trkpt lat="45.39004" lon="5.75692">
        <ele>703.269409</ele>
        <time>2019-09-07T09:43:43.925Z</time>
      </trkpt>
      <trkpt lat="45.39052" lon="5.75729">
        <ele>630.442993</ele>
        <time>2019-09-07T09:43:48.972Z</time>
      </trkpt>
      <trkpt lat="45.39077" lon="5.75762">
        <ele>664.420166</ele>
        <time>2019-09-07T09:43:54.009Z</time>
      </trkpt>
      <trkpt lat="45.39101" lon="5.75784">
        <ele>668.911621</ele>
        <time>2019-09-07T09:43:59.074Z</time>
      </trkpt>
      <trkpt lat="45.3913" lon="5.75803">
        <ele>668.649292</ele>
        <time>2019-09-07T09:44:04.122Z</time>
      </trkpt>
      <trkpt lat="45.39157" lon="5.75836">
        <ele>666.864502</ele>
        <time>2019-09-07T09:44:09.145Z</time>
      </trkpt>
      <trkpt lat="45.39207" lon="5.7586">
        <ele>659.536499</ele>
        <time>2019-09-07T09:44:14.190Z</time>
      </trkpt>
      <trkpt lat="45.3925" lon="5.75872">
        <ele>653.817505</ele>
        <time>2019-09-07T09:44:19.215Z</time>
      </trkpt>
      <trkpt lat="45.39287" lon="5.75894">
        <ele>596.185181</ele>
        <time>2019-09-07T09:44:24.268Z</time>
      </trkpt>
      <trkpt lat="45.39315" lon="5.75914">
        <ele>624.853394</ele>
        <time>2019-09-07T09:44:29.322Z</time>
      </trkpt>
      <trkpt lat="45.39339" lon="5.75903">
        <ele>633.901611</ele>
        <time>2019-09-07T09:44:34.368Z</time>
      </trkpt>
      <trkpt lat="45.39337" lon="5.75881">
        <ele>638.746826</ele>
        <time>2019-09-07T09:44:39.433Z</time>
      </trkpt>
      <trkpt lat="45.39322" lon="5.7587">
        <ele>640.074951</ele>
        <time>2019-09-07T09:44:44.480Z</time>
      </trkpt>
      <trkpt lat="45.39298" lon="5.75838">
        <ele>639.084351</ele>
        <time>2019-09-07T09:44:49.503Z</time>
      </trkpt>
      <trkpt lat="45.3929" lon="5.75806">
        <ele>631.151367</ele>
        <time>2019-09-07T09:44:54.553Z</time>
      </trkpt>
      <trkpt lat="45.39284" lon="5.75792">
        <ele>629.570923</ele>
        <time>2019-09-07T09:44:59.822Z</time>
      </trkpt>
      <trkpt lat="45.39275" lon="5.7579">
        <ele>629.400391</ele>
        <time>2019-09-07T09:45:04.827Z</time>
      </trkpt>
      <trkpt lat="45.39272" lon="5.75785">
        <ele>628.621826</ele>
        <time>2019-09-07T09:46:21.840Z</time>
      </trkpt>
      <trkpt lat="45.39255" lon="5.75772">
        <ele>632.778564</ele>
        <time>2019-09-07T09:46:26.840Z</time>
      </trkpt>
      <trkpt lat="45.39242" lon="5.75765">
        <ele>563.264771</ele>
        <time>2019-09-07T09:46:31.842Z</time>
      </trkpt>
      <trkpt lat="45.39233" lon="5.75759">
        <ele>600.268311</ele>
        <time>2019-09-07T09:46:36.842Z</time>
      </trkpt>
      <trkpt lat="45.39217" lon="5.75754">
        <ele>616.577515</ele>
        <time>2019-09-07T09:46:42.828Z</time>
      </trkpt>
      <trkpt lat="45.39206" lon="5.75753">
        <ele>626.824951</ele>
        <time>2019-09-07T09:46:47.833Z</time>
      </trkpt>
      <trkpt lat="45.39195" lon="5.75752">
        <ele>630.733398</ele>
        <time>2019-09-07T09:46:52.833Z</time>
      </trkpt>
      <trkpt lat="45.3919" lon="5.75752">
        <ele>638.836426</ele>
        <time>2019-09-07T09:46:58.040Z</time>
      </trkpt>
      <trkpt lat="45.39185" lon="5.75752">
        <ele>639.490479</ele>
        <time>2019-09-07T09:47:03.074Z</time>
      </trkpt>
      <trkpt lat="45.3917" lon="5.75758">
        <ele>646.8479</ele>
        <time>2019-09-07T09:47:27.832Z</time>
      </trkpt>
      <trkpt lat="45.39153" lon="5.75762">
        <ele>656.2948</ele>
        <time>2019-09-07T09:47:33.828Z</time>
      </trkpt>
      <trkpt lat="45.39141" lon="5.75765">
        <ele>663.714844</ele>
        <time>2019-09-07T09:47:38.830Z</time>
      </trkpt>
      <trkpt lat="45.39133" lon="5.75765">
        <ele>569.331055</ele>
        <time>2019-09-07T09:47:45.832Z</time>
      </trkpt>
      <trkpt lat="45.39127" lon="5.75762">
        <ele>615.037109</ele>
        <time>2019-09-07T09:47:51.820Z</time>
      </trkpt>
      <trkpt lat="45.39115" lon="5.75751">
        <ele>629.688477</ele>
        <time>2019-09-07T09:47:56.820Z</time>
      </trkpt>
      <trkpt lat="45.39102" lon="5.75744">
        <ele>643.993652</ele>
        <time>2019-09-07T09:48:01.822Z</time>
      </trkpt>
      <trkpt lat="45.39086" lon="5.75728">
        <ele>661.449219</ele>
        <time>2019-09-07T09:48:20.830Z</time>
      </trkpt>
      <trkpt lat="45.39069" lon="5.7572">
        <ele>661.386841</ele>
        <time>2019-09-07T09:48:26.823Z</time>
      </trkpt>
      <trkpt lat="45.39059" lon="5.75716">
        <ele>659.777588</ele>
        <time>2019-09-07T09:48:31.823Z</time>
      </trkpt>
      <trkpt lat="45.39041" lon="5.75708">
        <ele>659.681885</ele>
        <time>2019-09-07T09:48:36.831Z</time>
      </trkpt>
      <trkpt lat="45.39031" lon="5.757">
        <ele>596.375854</ele>
        <time>2019-09-07T09:48:42.601Z</time>
      </trkpt>
      <trkpt lat="45.39018" lon="5.75699">
        <ele>639.295654</ele>
        <time>2019-09-07T09:48:47.683Z</time>
      </trkpt>
      <trkpt lat="45.39009" lon="5.75701">
        <ele>654.803711</ele>
        <time>2019-09-07T09:48:52.736Z</time>
      </trkpt>
      <trkpt lat="45.38992" lon="5.75714">
        <ele>665.53125</ele>
        <time>2019-09-07T09:48:57.778Z</time>
      </trkpt>
      <trkpt lat="45.3898" lon="5.75712">
        <ele>671.688843</ele>
        <time>2019-09-07T09:49:02.855Z</time>
      </trkpt>
      <trkpt lat="45.38972" lon="5.75717">
        <ele>674.637085</ele>
        <time>2019-09-07T09:49:07.921Z</time>
      </trkpt>
      <trkpt lat="45.38968" lon="5.7572">
        <ele>680.232178</ele>
        <time>2019-09-07T09:49:12.989Z</time>
      </trkpt>
      <trkpt lat="45.38965" lon="5.7572">
        <ele>684.291504</ele>
        <time>2019-09-07T09:49:18.054Z</time>
      </trkpt>
      <trkpt lat="45.38959" lon="5.75722">
        <ele>686.294312</ele>
        <time>2019-09-07T09:49:23.123Z</time>
      </trkpt>
      <trkpt lat="45.38947" lon="5.75725">
        <ele>691.513916</ele>
        <time>2019-09-07T09:49:28.148Z</time>
      </trkpt>
      <trkpt lat="45.3894" lon="5.75728">
        <ele>692.513306</ele>
        <time>2019-09-07T09:49:33.198Z</time>
      </trkpt>
      <trkpt lat="45.38929" lon="5.75731">
        <ele>692.508545</ele>
        <time>2019-09-07T09:49:38.237Z</time>
      </trkpt>
      <trkpt lat="45.38918" lon="5.75733">
        <ele>694.621094</ele>
        <time>2019-09-07T09:49:43.272Z</time>
      </trkpt>
      <trkpt lat="45.38908" lon="5.75733">
        <ele>695.992065</ele>
        <time>2019-09-07T09:49:48.306Z</time>
      </trkpt>
      <trkpt lat="45.38899" lon="5.75729">
        <ele>580.049561</ele>
        <time>2019-09-07T09:49:53.331Z</time>
      </trkpt>
      <trkpt lat="45.38887" lon="5.75726">
        <ele>665.133423</ele>
        <time>2019-09-07T09:49:58.408Z</time>
      </trkpt>
      <trkpt lat="45.38879" lon="5.75727">
        <ele>687.226074</ele>
        <time>2019-09-07T09:50:03.411Z</time>
      </trkpt>
      <trkpt lat="45.38871" lon="5.75736">
        <ele>700.159912</ele>
        <time>2019-09-07T09:50:08.468Z</time>
      </trkpt>
      <trkpt lat="45.38878" lon="5.75743">
        <ele>611.733643</ele>
        <time>2019-09-07T09:50:13.521Z</time>
      </trkpt>
      <trkpt lat="45.38884" lon="5.75751">
        <ele>685.316162</ele>
        <time>2019-09-07T09:50:18.567Z</time>
      </trkpt>
      <trkpt lat="45.38893" lon="5.75758">
        <ele>700.172363</ele>
        <time>2019-09-07T09:50:23.588Z</time>
      </trkpt>
      <trkpt lat="45.389" lon="5.75767">
        <ele>709.164551</ele>
        <time>2019-09-07T09:50:28.652Z</time>
      </trkpt>
      <trkpt lat="45.38911" lon="5.75778">
        <ele>712.916016</ele>
        <time>2019-09-07T09:50:33.693Z</time>
      </trkpt>
      <trkpt lat="45.38919" lon="5.75789">
        <ele>717.311523</ele>
        <time>2019-09-07T09:50:38.734Z</time>
      </trkpt>
      <trkpt lat="45.38913" lon="5.75794">
        <ele>719.78125</ele>
        <time>2019-09-07T09:50:43.770Z</time>
      </trkpt>
      <trkpt lat="45.38899" lon="5.75797">
        <ele>725.160889</ele>
        <time>2019-09-07T09:51:09.825Z</time>
      </trkpt>
      <trkpt lat="45.38874" lon="5.75794">
        <ele>625.466553</ele>
        <time>2019-09-07T09:51:14.844Z</time>
      </trkpt>
      <trkpt lat="45.38857" lon="5.75782">
        <ele>685.092285</ele>
        <time>2019-09-07T09:51:20.837Z</time>
      </trkpt>
      <trkpt lat="45.38852" lon="5.75766">
        <ele>706.205566</ele>
        <time>2019-09-07T09:51:25.883Z</time>
      </trkpt>
      <trkpt lat="45.38849" lon="5.75747">
        <ele>725.055176</ele>
        <time>2019-09-07T09:51:30.905Z</time>
      </trkpt>
      <trkpt lat="45.38844" lon="5.75732">
        <ele>735.606201</ele>
        <time>2019-09-07T09:51:35.935Z</time>
      </trkpt>
      <trkpt lat="45.38833" lon="5.75721">
        <ele>740.882568</ele>
        <time>2019-09-07T09:51:40.963Z</time>
      </trkpt>
      <trkpt lat="45.38823" lon="5.75708">
        <ele>750.344971</ele>
        <time>2019-09-07T09:51:45.998Z</time>
      </trkpt>
      <trkpt lat="45.38816" lon="5.75699">
        <ele>749.721191</ele>
        <time>2019-09-07T09:51:51.042Z</time>
      </trkpt>
      <trkpt lat="45.3881" lon="5.75696">
        <ele>750.330078</ele>
        <time>2019-09-07T09:51:56.093Z</time>
      </trkpt>
      <trkpt lat="45.38804" lon="5.75698">
        <ele>751.457031</ele>
        <time>2019-09-07T09:52:01.147Z</time>
      </trkpt>
      <trkpt lat="45.38794" lon="5.75705">
        <ele>752.113281</ele>
        <time>2019-09-07T09:52:06.180Z</time>
      </trkpt>
      <trkpt lat="45.38786" lon="5.75711">
        <ele>758.518555</ele>
        <time>2019-09-07T09:53:24.827Z</time>
      </trkpt>
      <trkpt lat="45.38781" lon="5.75715">
        <ele>764.446533</ele>
        <time>2019-09-07T09:53:29.841Z</time>
      </trkpt>
      <trkpt lat="45.38765" lon="5.75714">
        <ele>762.406494</ele>
        <time>2019-09-07T09:53:35.429Z</time>
      </trkpt>
      <trkpt lat="45.38749" lon="5.75717">
        <ele>759.249512</ele>
        <time>2019-09-07T09:53:40.494Z</time>
      </trkpt>
      <trkpt lat="45.38734" lon="5.75707">
        <ele>762.83667</ele>
        <time>2019-09-07T09:53:45.539Z</time>
      </trkpt>
      <trkpt lat="45.38726" lon="5.75695">
        <ele>763.699951</ele>
        <time>2019-09-07T09:53:50.564Z</time>
      </trkpt>
      <trkpt lat="45.38719" lon="5.7568">
        <ele>764.2771</ele>
        <time>2019-09-07T09:53:55.607Z</time>
      </trkpt>
      <trkpt lat="45.38708" lon="5.75669">
        <ele>766.860962</ele>
        <time>2019-09-07T09:54:00.648Z</time>
      </trkpt>
      <trkpt lat="45.38697" lon="5.75671">
        <ele>769.019287</ele>
        <time>2019-09-07T09:54:05.681Z</time>
      </trkpt>
      <trkpt lat="45.38685" lon="5.75674">
        <ele>772.084229</ele>
        <time>2019-09-07T09:54:16.818Z</time>
      </trkpt>
      <trkpt lat="45.38667" lon="5.75676">
        <ele>770.236084</ele>
        <time>2019-09-07T09:54:21.863Z</time>
      </trkpt>
      <trkpt lat="45.3866" lon="5.75682">
        <ele>769.805908</ele>
        <time>2019-09-07T09:54:27.831Z</time>
      </trkpt>
      <trkpt lat="45.38651" lon="5.7569">
        <ele>770.909546</ele>
        <time>2019-09-07T09:54:33.448Z</time>
      </trkpt>
      <trkpt lat="45.38641" lon="5.757">
        <ele>771.137451</ele>
        <time>2019-09-07T09:54:38.482Z</time>
      </trkpt>
      <trkpt lat="45.38631" lon="5.75706">
        <ele>769.688721</ele>
        <time>2019-09-07T09:54:43.538Z</time>
      </trkpt>
      <trkpt lat="45.38621" lon="5.75709">
        <ele>772.349976</ele>
        <time>2019-09-07T09:54:48.586Z</time>
      </trkpt>
      <trkpt lat="45.38619" lon="5.7571">
        <ele>779.001099</ele>
        <time>2019-09-07T09:55:05.834Z</time>
      </trkpt>
      <trkpt lat="45.38616" lon="5.75712">
        <ele>779.355591</ele>
        <time>2019-09-07T09:55:11.833Z</time>
      </trkpt>
      <trkpt lat="45.38609" lon="5.75709">
        <ele>784.147461</ele>
        <time>2019-09-07T09:55:17.824Z</time>
      </trkpt>
      <trkpt lat="45.38605" lon="5.75711">
        <ele>789.637329</ele>
        <time>2019-09-07T09:55:24.828Z</time>
      </trkpt>
      <trkpt lat="45.38606" lon="5.7571">
        <ele>790.249023</ele>
        <time>2019-09-07T09:55:55.828Z</time>
      </trkpt>
      <trkpt lat="45.38604" lon="5.75708">
        <ele>797.57312</ele>
        <time>2019-09-07T09:56:35.828Z</time>
      </trkpt>
      <trkpt lat="45.38614" lon="5.75706">
        <ele>798.937256</ele>
        <time>2019-09-07T09:56:40.874Z</time>
      </trkpt>
      <trkpt lat="45.38622" lon="5.75695">
        <ele>793.643555</ele>
        <time>2019-09-07T09:56:46.817Z</time>
      </trkpt>
      <trkpt lat="45.38627" lon="5.75695">
        <ele>792.494507</ele>
        <time>2019-09-07T09:56:51.832Z</time>
      </trkpt>
      <trkpt lat="45.38634" lon="5.75689">
        <ele>790.769531</ele>
        <time>2019-09-07T09:56:57.823Z</time>
      </trkpt>
      <trkpt lat="45.38638" lon="5.75682">
        <ele>788.918701</ele>
        <time>2019-09-07T09:57:02.829Z</time>
      </trkpt>
      <trkpt lat="45.38642" lon="5.75676">
        <ele>790.266724</ele>
        <time>2019-09-07T09:57:07.829Z</time>
      </trkpt>
      <trkpt lat="45.38641" lon="5.75662">
        <ele>789.252441</ele>
        <time>2019-09-07T09:57:12.832Z</time>
      </trkpt>
      <trkpt lat="45.38636" lon="5.75638">
        <ele>779.753906</ele>
        <time>2019-09-07T09:57:18.818Z</time>
      </trkpt>
      <trkpt lat="45.38628" lon="5.75614">
        <ele>774.52124</ele>
        <time>2019-09-07T09:57:23.826Z</time>
      </trkpt>
      <trkpt lat="45.38619" lon="5.75597">
        <ele>770.203369</ele>
        <time>2019-09-07T09:57:28.833Z</time>
      </trkpt>
      <trkpt lat="45.38614" lon="5.75591">
        <ele>768.27832</ele>
        <time>2019-09-07T09:57:41.432Z</time>
      </trkpt>
      <trkpt lat="45.38614" lon="5.75588">
        <ele>766.505127</ele>
        <time>2019-09-07T09:57:46.484Z</time>
      </trkpt>
      <trkpt lat="45.38612" lon="5.75582">
        <ele>769.019043</ele>
        <time>2019-09-07T09:57:51.508Z</time>
      </trkpt>
      <trkpt lat="45.3861" lon="5.75579">
        <ele>771.376221</ele>
        <time>2019-09-07T09:57:56.536Z</time>
      </trkpt>
      <trkpt lat="45.38612" lon="5.75578">
        <ele>771.531982</ele>
        <time>2019-09-07T09:58:01.586Z</time>
      </trkpt>
      <trkpt lat="45.38613" lon="5.75577">
        <ele>770.07959</ele>
        <time>2019-09-07T09:58:06.833Z</time>
      </trkpt>
      <trkpt lat="45.38616" lon="5.75576">
        <ele>767.459839</ele>
        <time>2019-09-07T09:58:12.828Z</time>
      </trkpt>
      <trkpt lat="45.38621" lon="5.75576">
        <ele>762.853027</ele>
        <time>2019-09-07T09:58:17.828Z</time>
      </trkpt>
      <trkpt lat="45.38624" lon="5.75575">
        <ele>759.991943</ele>
        <time>2019-09-07T09:58:23.824Z</time>
      </trkpt>
      <trkpt lat="45.3863" lon="5.75572">
        <ele>756.757813</ele>
        <time>2019-09-07T09:58:28.829Z</time>
      </trkpt>
      <trkpt lat="45.38635" lon="5.75571">
        <ele>759.023682</ele>
        <time>2019-09-07T09:58:33.837Z</time>
      </trkpt>
      <trkpt lat="45.38643" lon="5.75569">
        <ele>752.452637</ele>
        <time>2019-09-07T09:58:38.837Z</time>
      </trkpt>
      <trkpt lat="45.38649" lon="5.75562">
        <ele>752.921631</ele>
        <time>2019-09-07T09:58:44.826Z</time>
      </trkpt>
      <trkpt lat="45.38652" lon="5.7556">
        <ele>754.469238</ele>
        <time>2019-09-07T09:58:50.831Z</time>
      </trkpt>
      <trkpt lat="45.38653" lon="5.75557">
        <ele>752.473877</ele>
        <time>2019-09-07T09:58:57.830Z</time>
      </trkpt>
      <trkpt lat="45.38652" lon="5.75554">
        <ele>753.741333</ele>
        <time>2019-09-07T09:59:02.834Z</time>
      </trkpt>
      <trkpt lat="45.38646" lon="5.7554">
        <ele>751.464722</ele>
        <time>2019-09-07T09:59:08.823Z</time>
      </trkpt>
      <trkpt lat="45.38643" lon="5.7553">
        <ele>750.914063</ele>
        <time>2019-09-07T09:59:13.828Z</time>
      </trkpt>
      <trkpt lat="45.3864" lon="5.75514">
        <ele>749.68457</ele>
        <time>2019-09-07T09:59:18.828Z</time>
      </trkpt>
      <trkpt lat="45.38637" lon="5.75495">
        <ele>745.912598</ele>
        <time>2019-09-07T09:59:23.838Z</time>
      </trkpt>
      <trkpt lat="45.38629" lon="5.75484">
        <ele>745.60498</ele>
        <time>2019-09-07T09:59:31.828Z</time>
      </trkpt>
      <trkpt lat="45.38626" lon="5.75473">
        <ele>747.844238</ele>
        <time>2019-09-07T09:59:36.839Z</time>
      </trkpt>
      <trkpt lat="45.38622" lon="5.7547">
        <ele>747.470581</ele>
        <time>2019-09-07T09:59:42.521Z</time>
      </trkpt>
      <trkpt lat="45.38629" lon="5.75465">
        <ele>749.00647</ele>
        <time>2019-09-07T09:59:47.555Z</time>
      </trkpt>
      <trkpt lat="45.38628" lon="5.7546">
        <ele>750.783813</ele>
        <time>2019-09-07T09:59:52.603Z</time>
      </trkpt>
      <trkpt lat="45.38621" lon="5.75455">
        <ele>752.769531</ele>
        <time>2019-09-07T09:59:57.643Z</time>
      </trkpt>
      <trkpt lat="45.38623" lon="5.75451">
        <ele>745.209595</ele>
        <time>2019-09-07T10:00:05.834Z</time>
      </trkpt>
      <trkpt lat="45.38627" lon="5.75452">
        <ele>746.62207</ele>
        <time>2019-09-07T10:00:10.834Z</time>
      </trkpt>
      <trkpt lat="45.38631" lon="5.75448">
        <ele>742.363037</ele>
        <time>2019-09-07T10:00:16.837Z</time>
      </trkpt>
      <trkpt lat="45.38625" lon="5.75451">
        <ele>737.776367</ele>
        <time>2019-09-07T10:00:21.838Z</time>
      </trkpt>
      <trkpt lat="45.3863" lon="5.75446">
        <ele>735.796753</ele>
        <time>2019-09-07T10:00:26.838Z</time>
      </trkpt>
      <trkpt lat="45.38634" lon="5.75444">
        <ele>731.2229</ele>
        <time>2019-09-07T10:00:31.903Z</time>
      </trkpt>
      <trkpt lat="45.38629" lon="5.75417">
        <ele>723.884766</ele>
        <time>2019-09-07T10:00:36.961Z</time>
      </trkpt>
      <trkpt lat="45.38623" lon="5.75385">
        <ele>716.419434</ele>
        <time>2019-09-07T10:00:41.989Z</time>
      </trkpt>
      <trkpt lat="45.38617" lon="5.75361">
        <ele>710.903564</ele>
        <time>2019-09-07T10:00:47.016Z</time>
      </trkpt>
      <trkpt lat="45.38614" lon="5.75342">
        <ele>707.223755</ele>
        <time>2019-09-07T10:00:52.040Z</time>
      </trkpt>
      <trkpt lat="45.38605" lon="5.7532">
        <ele>700.625977</ele>
        <time>2019-09-07T10:00:57.086Z</time>
      </trkpt>
      <trkpt lat="45.386" lon="5.75307">
        <ele>699.954346</ele>
        <time>2019-09-07T10:01:02.158Z</time>
      </trkpt>
      <trkpt lat="45.38599" lon="5.75303">
        <ele>698.061768</ele>
        <time>2019-09-07T10:01:07.182Z</time>
      </trkpt>
      <trkpt lat="45.38597" lon="5.75301">
        <ele>698.101318</ele>
        <time>2019-09-07T10:01:14.758Z</time>
      </trkpt>
      <trkpt lat="45.38597" lon="5.75299">
        <ele>698.649658</ele>
        <time>2019-09-07T10:01:20.825Z</time>
      </trkpt>
      <trkpt lat="45.38595" lon="5.75294">
        <ele>699.283691</ele>
        <time>2019-09-07T10:01:25.825Z</time>
      </trkpt>
      <trkpt lat="45.38592" lon="5.75282">
        <ele>693.820313</ele>
        <time>2019-09-07T10:01:30.831Z</time>
      </trkpt>
      <trkpt lat="45.38583" lon="5.75273">
        <ele>690.993164</ele>
        <time>2019-09-07T10:01:35.831Z</time>
      </trkpt>
      <trkpt lat="45.38582" lon="5.7526">
        <ele>689.925903</ele>
        <time>2019-09-07T10:01:40.831Z</time>
      </trkpt>
      <trkpt lat="45.38587" lon="5.75258">
        <ele>684.995972</ele>
        <time>2019-09-07T10:01:45.831Z</time>
      </trkpt>
      <trkpt lat="45.38591" lon="5.75253">
        <ele>685.429199</ele>
        <time>2019-09-07T10:01:50.831Z</time>
      </trkpt>
      <trkpt lat="45.38593" lon="5.75241">
        <ele>682.331421</ele>
        <time>2019-09-07T10:01:55.831Z</time>
      </trkpt>
      <trkpt lat="45.38594" lon="5.75228">
        <ele>677.262939</ele>
        <time>2019-09-07T10:02:00.837Z</time>
      </trkpt>
      <trkpt lat="45.38584" lon="5.7516">
        <ele>663.590332</ele>
        <time>2019-09-07T10:02:05.837Z</time>
      </trkpt>
      <trkpt lat="45.38569" lon="5.75121">
        <ele>661.352783</ele>
        <time>2019-09-07T10:02:10.837Z</time>
      </trkpt>
      <trkpt lat="45.38556" lon="5.75092">
        <ele>659.81311</ele>
        <time>2019-09-07T10:02:15.838Z</time>
      </trkpt>
      <trkpt lat="45.38561" lon="5.75059">
        <ele>656.582764</ele>
        <time>2019-09-07T10:02:21.828Z</time>
      </trkpt>
      <trkpt lat="45.38571" lon="5.75031">
        <ele>653.957031</ele>
        <time>2019-09-07T10:02:26.831Z</time>
      </trkpt>
      <trkpt lat="45.38576" lon="5.75005">
        <ele>641.220337</ele>
        <time>2019-09-07T10:02:31.831Z</time>
      </trkpt>
      <trkpt lat="45.38603" lon="5.74941">
        <ele>626.276733</ele>
        <time>2019-09-07T10:02:36.831Z</time>
      </trkpt>
      <trkpt lat="45.38614" lon="5.74905">
        <ele>616.355469</ele>
        <time>2019-09-07T10:02:41.831Z</time>
      </trkpt>
      <trkpt lat="45.3862" lon="5.74904">
        <ele>613.841919</ele>
        <time>2019-09-07T10:02:46.831Z</time>
      </trkpt>
      <trkpt lat="45.38621" lon="5.74904">
        <ele>614.118896</ele>
        <time>2019-09-07T10:03:04.829Z</time>
      </trkpt>
      <trkpt lat="45.38628" lon="5.74914">
        <ele>612.728271</ele>
        <time>2019-09-07T10:03:09.829Z</time>
      </trkpt>
      <trkpt lat="45.3864" lon="5.74933">
        <ele>613.126709</ele>
        <time>2019-09-07T10:03:14.830Z</time>
      </trkpt>
      <trkpt lat="45.38657" lon="5.74957">
        <ele>614.478516</ele>
        <time>2019-09-07T10:03:20.173Z</time>
      </trkpt>
      <trkpt lat="45.38678" lon="5.7498">
        <ele>615.618896</ele>
        <time>2019-09-07T10:03:25.221Z</time>
      </trkpt>
      <trkpt lat="45.38701" lon="5.74999">
        <ele>613.812012</ele>
        <time>2019-09-07T10:03:30.276Z</time>
      </trkpt>
      <trkpt lat="45.38724" lon="5.75015">
        <ele>614.107544</ele>
        <time>2019-09-07T10:03:35.322Z</time>
      </trkpt>
      <trkpt lat="45.38747" lon="5.75032">
        <ele>615.433838</ele>
        <time>2019-09-07T10:03:40.370Z</time>
      </trkpt>
      <trkpt lat="45.38775" lon="5.75057">
        <ele>617.020264</ele>
        <time>2019-09-07T10:03:45.417Z</time>
      </trkpt>
      <trkpt lat="45.38788" lon="5.75094">
        <ele>616.28418</ele>
        <time>2019-09-07T10:03:50.460Z</time>
      </trkpt>
      <trkpt lat="45.38805" lon="5.75108">
        <ele>616.83313</ele>
        <time>2019-09-07T10:03:55.491Z</time>
      </trkpt>
      <trkpt lat="45.38833" lon="5.75105">
        <ele>616.427002</ele>
        <time>2019-09-07T10:04:00.515Z</time>
      </trkpt>
      <trkpt lat="45.38863" lon="5.75113">
        <ele>611.513672</ele>
        <time>2019-09-07T10:04:05.547Z</time>
      </trkpt>
      <trkpt lat="45.38891" lon="5.75126">
        <ele>611.512939</ele>
        <time>2019-09-07T10:04:10.583Z</time>
      </trkpt>
      <trkpt lat="45.38913" lon="5.75141">
        <ele>605.772583</ele>
        <time>2019-09-07T10:04:15.622Z</time>
      </trkpt>
      <trkpt lat="45.38932" lon="5.7517">
        <ele>607.936279</ele>
        <time>2019-09-07T10:04:20.669Z</time>
      </trkpt>
      <trkpt lat="45.38956" lon="5.75212">
        <ele>606.377197</ele>
        <time>2019-09-07T10:04:25.697Z</time>
      </trkpt>
      <trkpt lat="45.38979" lon="5.75213">
        <ele>605.966309</ele>
        <time>2019-09-07T10:04:30.736Z</time>
      </trkpt>
      <trkpt lat="45.3899" lon="5.75205">
        <ele>611.934082</ele>
        <time>2019-09-07T10:04:35.774Z</time>
      </trkpt>
      <trkpt lat="45.39" lon="5.75193">
        <ele>615.949219</ele>
        <time>2019-09-07T10:04:40.840Z</time>
      </trkpt>
      <trkpt lat="45.39005" lon="5.75186">
        <ele>617.132813</ele>
        <time>2019-09-07T10:04:45.877Z</time>
      </trkpt>
      <trkpt lat="45.39007" lon="5.75185">
        <ele>617.287598</ele>
        <time>2019-09-07T10:05:09.818Z</time>
      </trkpt>
      <trkpt lat="45.38996" lon="5.75192">
        <ele>618.93042</ele>
        <time>2019-09-07T10:05:14.835Z</time>
      </trkpt>
      <trkpt lat="45.38992" lon="5.75195">
        <ele>621.474365</ele>
        <time>2019-09-07T10:05:21.750Z</time>
      </trkpt>
      <trkpt lat="45.38998" lon="5.75177">
        <ele>620.570068</ele>
        <time>2019-09-07T10:05:26.796Z</time>
      </trkpt>
      <trkpt lat="45.38999" lon="5.75139">
        <ele>615.325195</ele>
        <time>2019-09-07T10:05:31.849Z</time>
      </trkpt>
      <trkpt lat="45.38998" lon="5.75115">
        <ele>613.13208</ele>
        <time>2019-09-07T10:05:36.849Z</time>
      </trkpt>
      <trkpt lat="45.39003" lon="5.7509">
        <ele>606.122803</ele>
        <time>2019-09-07T10:05:41.950Z</time>
      </trkpt>
      <trkpt lat="45.39014" lon="5.75076">
        <ele>602.362793</ele>
        <time>2019-09-07T10:05:46.982Z</time>
      </trkpt>
      <trkpt lat="45.39033" lon="5.75059">
        <ele>596.979004</ele>
        <time>2019-09-07T10:05:51.999Z</time>
      </trkpt>
      <trkpt lat="45.39046" lon="5.75043">
        <ele>589.656006</ele>
        <time>2019-09-07T10:05:57.027Z</time>
      </trkpt>
      <trkpt lat="45.39054" lon="5.75028">
        <ele>584.96167</ele>
        <time>2019-09-07T10:06:02.068Z</time>
      </trkpt>
      <trkpt lat="45.39062" lon="5.75009">
        <ele>576.76709</ele>
        <time>2019-09-07T10:06:07.123Z</time>
      </trkpt>
      <trkpt lat="45.39073" lon="5.74987">
        <ele>572.89917</ele>
        <time>2019-09-07T10:06:12.171Z</time>
      </trkpt>
      <trkpt lat="45.3908" lon="5.74965">
        <ele>572.675049</ele>
        <time>2019-09-07T10:06:17.244Z</time>
      </trkpt>
      <trkpt lat="45.39081" lon="5.74931">
        <ele>566.844482</ele>
        <time>2019-09-07T10:06:22.294Z</time>
      </trkpt>
      <trkpt lat="45.39089" lon="5.749">
        <ele>553.405396</ele>
        <time>2019-09-07T10:06:27.342Z</time>
      </trkpt>
      <trkpt lat="45.39083" lon="5.74872">
        <ele>552.629639</ele>
        <time>2019-09-07T10:06:32.399Z</time>
      </trkpt>
      <trkpt lat="45.39083" lon="5.74846">
        <ele>553.521729</ele>
        <time>2019-09-07T10:06:37.442Z</time>
      </trkpt>
      <trkpt lat="45.39082" lon="5.74825">
        <ele>554.657227</ele>
        <time>2019-09-07T10:06:42.835Z</time>
      </trkpt>
      <trkpt lat="45.3909" lon="5.74802">
        <ele>549.725586</ele>
        <time>2019-09-07T10:06:47.835Z</time>
      </trkpt>
      <trkpt lat="45.39095" lon="5.74779">
        <ele>546.035156</ele>
        <time>2019-09-07T10:06:52.835Z</time>
      </trkpt>
      <trkpt lat="45.39104" lon="5.74764">
        <ele>542.543335</ele>
        <time>2019-09-07T10:06:57.835Z</time>
      </trkpt>
      <trkpt lat="45.39112" lon="5.74744">
        <ele>532.683838</ele>
        <time>2019-09-07T10:07:03.768Z</time>
      </trkpt>
      <trkpt lat="45.39116" lon="5.74712">
        <ele>522.514587</ele>
        <time>2019-09-07T10:07:08.832Z</time>
      </trkpt>
      <trkpt lat="45.39113" lon="5.74688">
        <ele>519.337585</ele>
        <time>2019-09-07T10:07:13.832Z</time>
      </trkpt>
      <trkpt lat="45.39121" lon="5.74653">
        <ele>516.068054</ele>
        <time>2019-09-07T10:07:18.832Z</time>
      </trkpt>
      <trkpt lat="45.39108" lon="5.74621">
        <ele>508.900024</ele>
        <time>2019-09-07T10:07:23.832Z</time>
      </trkpt>
      <trkpt lat="45.39113" lon="5.74579">
        <ele>507.961548</ele>
        <time>2019-09-07T10:07:28.832Z</time>
      </trkpt>
      <trkpt lat="45.39129" lon="5.74547">
        <ele>506.026123</ele>
        <time>2019-09-07T10:07:33.835Z</time>
      </trkpt>
      <trkpt lat="45.39132" lon="5.74543">
        <ele>506.077148</ele>
        <time>2019-09-07T10:07:46.833Z</time>
      </trkpt>
      <trkpt lat="45.39147" lon="5.7455">
        <ele>504.288574</ele>
        <time>2019-09-07T10:07:52.820Z</time>
      </trkpt>
      <trkpt lat="45.39178" lon="5.74559">
        <ele>501.10144</ele>
        <time>2019-09-07T10:07:57.827Z</time>
      </trkpt>
      <trkpt lat="45.39213" lon="5.74552">
        <ele>497.798401</ele>
        <time>2019-09-07T10:08:02.827Z</time>
      </trkpt>
      <trkpt lat="45.39243" lon="5.74558">
        <ele>493.253174</ele>
        <time>2019-09-07T10:08:07.827Z</time>
      </trkpt>
      <trkpt lat="45.39262" lon="5.7455">
        <ele>493.219238</ele>
        <time>2019-09-07T10:08:12.827Z</time>
      </trkpt>
      <trkpt lat="45.39273" lon="5.74564">
        <ele>490.649841</ele>
        <time>2019-09-07T10:08:17.827Z</time>
      </trkpt>
      <trkpt lat="45.39279" lon="5.74591">
        <ele>490.465454</ele>
        <time>2019-09-07T10:08:22.827Z</time>
      </trkpt>
      <trkpt lat="45.3929" lon="5.74615">
        <ele>491.668213</ele>
        <time>2019-09-07T10:08:27.827Z</time>
      </trkpt>
      <trkpt lat="45.39306" lon="5.74635">
        <ele>492.953674</ele>
        <time>2019-09-07T10:08:32.907Z</time>
      </trkpt>
      <trkpt lat="45.39325" lon="5.74656">
        <ele>494.437988</ele>
        <time>2019-09-07T10:08:38.826Z</time>
      </trkpt>
      <trkpt lat="45.39342" lon="5.74675">
        <ele>496.210083</ele>
        <time>2019-09-07T10:08:43.826Z</time>
      </trkpt>
      <trkpt lat="45.39357" lon="5.74695">
        <ele>498.188171</ele>
        <time>2019-09-07T10:08:48.831Z</time>
      </trkpt>
      <trkpt lat="45.3937" lon="5.74717">
        <ele>499.479858</ele>
        <time>2019-09-07T10:08:53.831Z</time>
      </trkpt>
      <trkpt lat="45.39383" lon="5.74739">
        <ele>500.839783</ele>
        <time>2019-09-07T10:08:58.831Z</time>
      </trkpt>
      <trkpt lat="45.39401" lon="5.74756">
        <ele>500.915283</ele>
        <time>2019-09-07T10:09:03.831Z</time>
      </trkpt>
      <trkpt lat="45.39416" lon="5.74771">
        <ele>503.867188</ele>
        <time>2019-09-07T10:09:08.839Z</time>
      </trkpt>
      <trkpt lat="45.3943" lon="5.74789">
        <ele>503.924072</ele>
        <time>2019-09-07T10:09:13.839Z</time>
      </trkpt>
      <trkpt lat="45.39442" lon="5.74812">
        <ele>504.317993</ele>
        <time>2019-09-07T10:09:19.834Z</time>
      </trkpt>
      <trkpt lat="45.39453" lon="5.74833">
        <ele>509.120483</ele>
        <time>2019-09-07T10:09:24.834Z</time>
      </trkpt>
      <trkpt lat="45.39467" lon="5.74849">
        <ele>511.505737</ele>
        <time>2019-09-07T10:09:29.846Z</time>
      </trkpt>
      <trkpt lat="45.39481" lon="5.74863">
        <ele>513.281006</ele>
        <time>2019-09-07T10:09:35.109Z</time>
      </trkpt>
      <trkpt lat="45.39495" lon="5.74873">
        <ele>516.979248</ele>
        <time>2019-09-07T10:09:40.161Z</time>
      </trkpt>
      <trkpt lat="45.39507" lon="5.74878">
        <ele>519.727966</ele>
        <time>2019-09-07T10:09:45.215Z</time>
      </trkpt>
      <trkpt lat="45.39506" lon="5.74874">
        <ele>518.052185</ele>
        <time>2019-09-07T10:09:50.257Z</time>
      </trkpt>
      <trkpt lat="45.39515" lon="5.7488">
        <ele>522.004028</ele>
        <time>2019-09-07T10:09:57.846Z</time>
      </trkpt>
      <trkpt lat="45.39516" lon="5.74877">
        <ele>521.616821</ele>
        <time>2019-09-07T10:10:07.828Z</time>
      </trkpt>
      <trkpt lat="45.39513" lon="5.74878">
        <ele>521.16449</ele>
        <time>2019-09-07T10:10:27.828Z</time>
      </trkpt>
      <trkpt lat="45.3951" lon="5.74875">
        <ele>520.44281</ele>
        <time>2019-09-07T10:10:32.832Z</time>
      </trkpt>
      <trkpt lat="45.39502" lon="5.74855">
        <ele>518.889771</ele>
        <time>2019-09-07T10:10:37.832Z</time>
      </trkpt>
      <trkpt lat="45.39491" lon="5.7484">
        <ele>515.411499</ele>
        <time>2019-09-07T10:10:42.832Z</time>
      </trkpt>
      <trkpt lat="45.39496" lon="5.74821">
        <ele>509.82959</ele>
        <time>2019-09-07T10:10:47.840Z</time>
      </trkpt>
      <trkpt lat="45.39496" lon="5.74743">
        <ele>503.612671</ele>
        <time>2019-09-07T10:10:52.840Z</time>
      </trkpt>
      <trkpt lat="45.39478" lon="5.74709">
        <ele>498.789551</ele>
        <time>2019-09-07T10:10:57.840Z</time>
      </trkpt>
      <trkpt lat="45.39462" lon="5.74676">
        <ele>491.655029</ele>
        <time>2019-09-07T10:11:02.840Z</time>
      </trkpt>
      <trkpt lat="45.39451" lon="5.74648">
        <ele>485.364624</ele>
        <time>2019-09-07T10:11:08.768Z</time>
      </trkpt>
      <trkpt lat="45.39449" lon="5.74625">
        <ele>484.098755</ele>
        <time>2019-09-07T10:11:13.805Z</time>
      </trkpt>
      <trkpt lat="45.39455" lon="5.74607">
        <ele>483.083374</ele>
        <time>2019-09-07T10:11:19.924Z</time>
      </trkpt>
      <trkpt lat="45.3946" lon="5.74562">
        <ele>473.447754</ele>
        <time>2019-09-07T10:11:29.834Z</time>
      </trkpt>
      <trkpt lat="45.39462" lon="5.74557">
        <ele>472.498901</ele>
        <time>2019-09-07T10:11:39.669Z</time>
      </trkpt>
      <trkpt lat="45.39463" lon="5.74548">
        <ele>471.049866</ele>
        <time>2019-09-07T10:11:48.815Z</time>
      </trkpt>
      <trkpt lat="45.39459" lon="5.74545">
        <ele>464.732666</ele>
        <time>2019-09-07T10:24:59.820Z</time>
      </trkpt>
      <trkpt lat="45.3946" lon="5.74547">
        <ele>462.436035</ele>
        <time>2019-09-07T10:25:08.542Z</time>
      </trkpt>
      <trkpt lat="45.39461" lon="5.74545">
        <ele>460.659729</ele>
        <time>2019-09-07T10:25:17.827Z</time>
      </trkpt>
      <trkpt lat="45.39467" lon="5.74529">
        <ele>456.919678</ele>
        <time>2019-09-07T10:25:22.827Z</time>
      </trkpt>
      <trkpt lat="45.39483" lon="5.74492">
        <ele>458.423096</ele>
        <time>2019-09-07T10:25:27.827Z</time>
      </trkpt>
      <trkpt lat="45.395" lon="5.74444">
        <ele>457.789795</ele>
        <time>2019-09-07T10:25:32.830Z</time>
      </trkpt>
      <trkpt lat="45.39515" lon="5.74415">
        <ele>455.334961</ele>
        <time>2019-09-07T10:25:37.832Z</time>
      </trkpt>
      <trkpt lat="45.39536" lon="5.74397">
        <ele>455.035889</ele>
        <time>2019-09-07T10:25:42.832Z</time>
      </trkpt>
      <trkpt lat="45.39566" lon="5.74405">
        <ele>455.664001</ele>
        <time>2019-09-07T10:25:47.832Z</time>
      </trkpt>
      <trkpt lat="45.39602" lon="5.74407">
        <ele>451.223389</ele>
        <time>2019-09-07T10:25:52.832Z</time>
      </trkpt>
      <trkpt lat="45.39626" lon="5.74387">
        <ele>454.536255</ele>
        <time>2019-09-07T10:25:58.122Z</time>
      </trkpt>
      <trkpt lat="45.39652" lon="5.74354">
        <ele>450.686646</ele>
        <time>2019-09-07T10:26:03.827Z</time>
      </trkpt>
      <trkpt lat="45.39667" lon="5.74324">
        <ele>451.967834</ele>
        <time>2019-09-07T10:26:08.828Z</time>
      </trkpt>
      <trkpt lat="45.39678" lon="5.74296">
        <ele>452.814697</ele>
        <time>2019-09-07T10:26:13.828Z</time>
      </trkpt>
      <trkpt lat="45.39688" lon="5.74275">
        <ele>450.317383</ele>
        <time>2019-09-07T10:26:18.828Z</time>
      </trkpt>
      <trkpt lat="45.39704" lon="5.74277">
        <ele>451.488281</ele>
        <time>2019-09-07T10:26:23.830Z</time>
      </trkpt>
      <trkpt lat="45.39725" lon="5.74294">
        <ele>456.412598</ele>
        <time>2019-09-07T10:26:28.830Z</time>
      </trkpt>
      <trkpt lat="45.39737" lon="5.74302">
        <ele>453.238281</ele>
        <time>2019-09-07T10:26:35.898Z</time>
      </trkpt>
      <trkpt lat="45.39783" lon="5.74315">
        <ele>450.84668</ele>
        <time>2019-09-07T10:26:40.946Z</time>
      </trkpt>
      <trkpt lat="45.39807" lon="5.74323">
        <ele>448.749939</ele>
        <time>2019-09-07T10:26:45.990Z</time>
      </trkpt>
      <trkpt lat="45.39834" lon="5.74337">
        <ele>447.172852</ele>
        <time>2019-09-07T10:26:51.037Z</time>
      </trkpt>
      <trkpt lat="45.39857" lon="5.74359">
        <ele>449.80896</ele>
        <time>2019-09-07T10:26:56.078Z</time>
      </trkpt>
      <trkpt lat="45.39877" lon="5.74385">
        <ele>448.614136</ele>
        <time>2019-09-07T10:27:01.113Z</time>
      </trkpt>
      <trkpt lat="45.39892" lon="5.74419">
        <ele>450.121338</ele>
        <time>2019-09-07T10:27:06.156Z</time>
      </trkpt>
      <trkpt lat="45.39909" lon="5.74454">
        <ele>449.813232</ele>
        <time>2019-09-07T10:27:11.202Z</time>
      </trkpt>
      <trkpt lat="45.39928" lon="5.74488">
        <ele>452.397461</ele>
        <time>2019-09-07T10:27:16.232Z</time>
      </trkpt>
      <trkpt lat="45.39954" lon="5.74521">
        <ele>452.504517</ele>
        <time>2019-09-07T10:27:21.507Z</time>
      </trkpt>
      <trkpt lat="45.39978" lon="5.74557">
        <ele>451.458374</ele>
        <time>2019-09-07T10:27:26.545Z</time>
      </trkpt>
      <trkpt lat="45.40001" lon="5.74597">
        <ele>450.410522</ele>
        <time>2019-09-07T10:27:31.588Z</time>
      </trkpt>
      <trkpt lat="45.40016" lon="5.7464">
        <ele>448.203003</ele>
        <time>2019-09-07T10:27:36.634Z</time>
      </trkpt>
      <trkpt lat="45.40032" lon="5.7468">
        <ele>446.363647</ele>
        <time>2019-09-07T10:27:41.681Z</time>
      </trkpt>
      <trkpt lat="45.40058" lon="5.74706">
        <ele>445.780334</ele>
        <time>2019-09-07T10:27:46.718Z</time>
      </trkpt>
      <trkpt lat="45.40085" lon="5.74725">
        <ele>446.163574</ele>
        <time>2019-09-07T10:27:51.766Z</time>
      </trkpt>
      <trkpt lat="45.40109" lon="5.74751">
        <ele>444.834717</ele>
        <time>2019-09-07T10:27:56.813Z</time>
      </trkpt>
      <trkpt lat="45.40141" lon="5.74785">
        <ele>445.654785</ele>
        <time>2019-09-07T10:28:01.828Z</time>
      </trkpt>
      <trkpt lat="45.40168" lon="5.74818">
        <ele>443.579346</ele>
        <time>2019-09-07T10:28:06.831Z</time>
      </trkpt>
      <trkpt lat="45.40192" lon="5.74856">
        <ele>443.545715</ele>
        <time>2019-09-07T10:28:11.843Z</time>
      </trkpt>
      <trkpt lat="45.40217" lon="5.74896">
        <ele>445.902283</ele>
        <time>2019-09-07T10:28:16.843Z</time>
      </trkpt>
      <trkpt lat="45.40238" lon="5.74937">
        <ele>444.141357</ele>
        <time>2019-09-07T10:28:21.843Z</time>
      </trkpt>
      <trkpt lat="45.40255" lon="5.74979">
        <ele>443.319214</ele>
        <time>2019-09-07T10:28:26.843Z</time>
      </trkpt>
      <trkpt lat="45.40267" lon="5.75023">
        <ele>443.207703</ele>
        <time>2019-09-07T10:28:31.843Z</time>
      </trkpt>
      <trkpt lat="45.4028" lon="5.75064">
        <ele>444.515625</ele>
        <time>2019-09-07T10:28:36.843Z</time>
      </trkpt>
      <trkpt lat="45.40297" lon="5.75103">
        <ele>441.939453</ele>
        <time>2019-09-07T10:28:41.843Z</time>
      </trkpt>
      <trkpt lat="45.40313" lon="5.7513">
        <ele>442.572388</ele>
        <time>2019-09-07T10:28:47.445Z</time>
      </trkpt>
      <trkpt lat="45.40341" lon="5.7517">
        <ele>444.07019</ele>
        <time>2019-09-07T10:28:52.836Z</time>
      </trkpt>
      <trkpt lat="45.40355" lon="5.75205">
        <ele>443.515381</ele>
        <time>2019-09-07T10:28:57.836Z</time>
      </trkpt>
      <trkpt lat="45.40364" lon="5.75244">
        <ele>444.519653</ele>
        <time>2019-09-07T10:29:02.836Z</time>
      </trkpt>
      <trkpt lat="45.40374" lon="5.75281">
        <ele>443.616211</ele>
        <time>2019-09-07T10:29:07.839Z</time>
      </trkpt>
      <trkpt lat="45.40388" lon="5.75319">
        <ele>441.756836</ele>
        <time>2019-09-07T10:29:12.839Z</time>
      </trkpt>
      <trkpt lat="45.40406" lon="5.75357">
        <ele>445.750488</ele>
        <time>2019-09-07T10:29:17.839Z</time>
      </trkpt>
      <trkpt lat="45.40422" lon="5.75391">
        <ele>447.622925</ele>
        <time>2019-09-07T10:29:22.839Z</time>
      </trkpt>
      <trkpt lat="45.40437" lon="5.75424">
        <ele>448.498779</ele>
        <time>2019-09-07T10:29:27.839Z</time>
      </trkpt>
      <trkpt lat="45.40449" lon="5.75459">
        <ele>450.201477</ele>
        <time>2019-09-07T10:29:32.839Z</time>
      </trkpt>
      <trkpt lat="45.40455" lon="5.75491">
        <ele>447.505371</ele>
        <time>2019-09-07T10:29:37.839Z</time>
      </trkpt>
      <trkpt lat="45.40471" lon="5.75527">
        <ele>446.768433</ele>
        <time>2019-09-07T10:29:42.839Z</time>
      </trkpt>
      <trkpt lat="45.40486" lon="5.75564">
        <ele>448.456665</ele>
        <time>2019-09-07T10:29:47.839Z</time>
      </trkpt>
      <trkpt lat="45.40503" lon="5.75602">
        <ele>448.815186</ele>
        <time>2019-09-07T10:29:52.839Z</time>
      </trkpt>
      <trkpt lat="45.40522" lon="5.75631">
        <ele>449.016846</ele>
        <time>2019-09-07T10:29:57.839Z</time>
      </trkpt>
      <trkpt lat="45.40546" lon="5.75657">
        <ele>448.959961</ele>
        <time>2019-09-07T10:30:02.840Z</time>
      </trkpt>
      <trkpt lat="45.40573" lon="5.7568">
        <ele>448.593262</ele>
        <time>2019-09-07T10:30:07.840Z</time>
      </trkpt>
      <trkpt lat="45.40603" lon="5.75706">
        <ele>447.485657</ele>
        <time>2019-09-07T10:30:12.840Z</time>
      </trkpt>
      <trkpt lat="45.40632" lon="5.75741">
        <ele>447.289307</ele>
        <time>2019-09-07T10:30:17.840Z</time>
      </trkpt>
      <trkpt lat="45.40657" lon="5.75781">
        <ele>446.662659</ele>
        <time>2019-09-07T10:30:22.868Z</time>
      </trkpt>
      <trkpt lat="45.40687" lon="5.7583">
        <ele>445.845337</ele>
        <time>2019-09-07T10:30:28.832Z</time>
      </trkpt>
      <trkpt lat="45.40712" lon="5.7587">
        <ele>446.974915</ele>
        <time>2019-09-07T10:30:33.833Z</time>
      </trkpt>
      <trkpt lat="45.40745" lon="5.75888">
        <ele>446.27124</ele>
        <time>2019-09-07T10:30:38.833Z</time>
      </trkpt>
      <trkpt lat="45.40782" lon="5.75888">
        <ele>446.681152</ele>
        <time>2019-09-07T10:30:43.833Z</time>
      </trkpt>
      <trkpt lat="45.40822" lon="5.75881">
        <ele>444.760254</ele>
        <time>2019-09-07T10:30:48.833Z</time>
      </trkpt>
      <trkpt lat="45.40858" lon="5.75876">
        <ele>442.077393</ele>
        <time>2019-09-07T10:30:53.838Z</time>
      </trkpt>
      <trkpt lat="45.40888" lon="5.75878">
        <ele>437.38855</ele>
        <time>2019-09-07T10:30:58.838Z</time>
      </trkpt>
      <trkpt lat="45.40922" lon="5.75884">
        <ele>438.394287</ele>
        <time>2019-09-07T10:31:03.841Z</time>
      </trkpt>
      <trkpt lat="45.40961" lon="5.75884">
        <ele>439.496338</ele>
        <time>2019-09-07T10:31:08.841Z</time>
      </trkpt>
      <trkpt lat="45.40992" lon="5.75888">
        <ele>447.678711</ele>
        <time>2019-09-07T10:31:13.841Z</time>
      </trkpt>
      <trkpt lat="45.4102" lon="5.75872">
        <ele>442.158569</ele>
        <time>2019-09-07T10:31:18.841Z</time>
      </trkpt>
      <trkpt lat="45.41032" lon="5.75863">
        <ele>441.029419</ele>
        <time>2019-09-07T10:31:23.913Z</time>
      </trkpt>
      <trkpt lat="45.41061" lon="5.75804">
        <ele>438.993225</ele>
        <time>2019-09-07T10:31:28.982Z</time>
      </trkpt>
      <trkpt lat="45.41069" lon="5.75756">
        <ele>435.872803</ele>
        <time>2019-09-07T10:31:34.008Z</time>
      </trkpt>
      <trkpt lat="45.41085" lon="5.75715">
        <ele>434.533875</ele>
        <time>2019-09-07T10:31:39.050Z</time>
      </trkpt>
      <trkpt lat="45.41114" lon="5.75682">
        <ele>443.384644</ele>
        <time>2019-09-07T10:31:44.090Z</time>
      </trkpt>
      <trkpt lat="45.41141" lon="5.75658">
        <ele>437.30603</ele>
        <time>2019-09-07T10:31:49.128Z</time>
      </trkpt>
      <trkpt lat="45.4117" lon="5.75642">
        <ele>436.452942</ele>
        <time>2019-09-07T10:31:54.169Z</time>
      </trkpt>
      <trkpt lat="45.41198" lon="5.75626">
        <ele>439.843201</ele>
        <time>2019-09-07T10:31:59.216Z</time>
      </trkpt>
      <trkpt lat="45.4123" lon="5.75615">
        <ele>436.202515</ele>
        <time>2019-09-07T10:32:04.283Z</time>
      </trkpt>
      <trkpt lat="45.41261" lon="5.75613">
        <ele>436.019409</ele>
        <time>2019-09-07T10:32:09.327Z</time>
      </trkpt>
      <trkpt lat="45.41291" lon="5.75609">
        <ele>434.212646</ele>
        <time>2019-09-07T10:32:14.381Z</time>
      </trkpt>
      <trkpt lat="45.4132" lon="5.75604">
        <ele>431.185181</ele>
        <time>2019-09-07T10:32:19.410Z</time>
      </trkpt>
      <trkpt lat="45.41348" lon="5.75582">
        <ele>431.749329</ele>
        <time>2019-09-07T10:32:24.456Z</time>
      </trkpt>
      <trkpt lat="45.41373" lon="5.75558">
        <ele>433.930359</ele>
        <time>2019-09-07T10:32:29.493Z</time>
      </trkpt>
      <trkpt lat="45.41396" lon="5.75538">
        <ele>435.490845</ele>
        <time>2019-09-07T10:32:34.517Z</time>
      </trkpt>
      <trkpt lat="45.41422" lon="5.75539">
        <ele>434.76178</ele>
        <time>2019-09-07T10:32:39.560Z</time>
      </trkpt>
      <trkpt lat="45.41449" lon="5.75546">
        <ele>434.196167</ele>
        <time>2019-09-07T10:32:44.596Z</time>
      </trkpt>
      <trkpt lat="45.41476" lon="5.75551">
        <ele>433.918518</ele>
        <time>2019-09-07T10:32:49.642Z</time>
      </trkpt>
      <trkpt lat="45.41505" lon="5.75557">
        <ele>434.487549</ele>
        <time>2019-09-07T10:32:54.673Z</time>
      </trkpt>
      <trkpt lat="45.41529" lon="5.75568">
        <ele>434.862488</ele>
        <time>2019-09-07T10:32:59.721Z</time>
      </trkpt>
      <trkpt lat="45.41553" lon="5.75582">
        <ele>434.904358</ele>
        <time>2019-09-07T10:33:04.786Z</time>
      </trkpt>
      <trkpt lat="45.41576" lon="5.75599">
        <ele>435.535034</ele>
        <time>2019-09-07T10:33:09.825Z</time>
      </trkpt>
      <trkpt lat="45.41598" lon="5.75626">
        <ele>434.666016</ele>
        <time>2019-09-07T10:33:14.844Z</time>
      </trkpt>
      <trkpt lat="45.41619" lon="5.75657">
        <ele>433.956299</ele>
        <time>2019-09-07T10:33:19.844Z</time>
      </trkpt>
      <trkpt lat="45.41639" lon="5.75686">
        <ele>434.886475</ele>
        <time>2019-09-07T10:33:24.844Z</time>
      </trkpt>
      <trkpt lat="45.41662" lon="5.75713">
        <ele>434.628662</ele>
        <time>2019-09-07T10:33:29.844Z</time>
      </trkpt>
      <trkpt lat="45.41685" lon="5.75738">
        <ele>434.196838</ele>
        <time>2019-09-07T10:33:35.051Z</time>
      </trkpt>
      <trkpt lat="45.41708" lon="5.75764">
        <ele>433.688965</ele>
        <time>2019-09-07T10:33:40.079Z</time>
      </trkpt>
      <trkpt lat="45.41733" lon="5.75792">
        <ele>434.276367</ele>
        <time>2019-09-07T10:33:45.141Z</time>
      </trkpt>
      <trkpt lat="45.41756" lon="5.75819">
        <ele>434.054199</ele>
        <time>2019-09-07T10:33:50.184Z</time>
      </trkpt>
      <trkpt lat="45.4178" lon="5.75844">
        <ele>435.136597</ele>
        <time>2019-09-07T10:33:55.231Z</time>
      </trkpt>
      <trkpt lat="45.41804" lon="5.75867">
        <ele>434.165466</ele>
        <time>2019-09-07T10:34:00.275Z</time>
      </trkpt>
      <trkpt lat="45.41833" lon="5.75895">
        <ele>430.176636</ele>
        <time>2019-09-07T10:34:05.824Z</time>
      </trkpt>
      <trkpt lat="45.41856" lon="5.7592">
        <ele>432.584473</ele>
        <time>2019-09-07T10:34:10.825Z</time>
      </trkpt>
      <trkpt lat="45.41878" lon="5.75944">
        <ele>432.376953</ele>
        <time>2019-09-07T10:34:15.825Z</time>
      </trkpt>
      <trkpt lat="45.41901" lon="5.75969">
        <ele>432.481567</ele>
        <time>2019-09-07T10:34:20.831Z</time>
      </trkpt>
      <trkpt lat="45.41924" lon="5.75994">
        <ele>434.605347</ele>
        <time>2019-09-07T10:34:25.831Z</time>
      </trkpt>
      <trkpt lat="45.41948" lon="5.76017">
        <ele>434.239746</ele>
        <time>2019-09-07T10:34:30.831Z</time>
      </trkpt>
      <trkpt lat="45.41971" lon="5.76045">
        <ele>436.807495</ele>
        <time>2019-09-07T10:34:35.834Z</time>
      </trkpt>
      <trkpt lat="45.41999" lon="5.76073">
        <ele>435.217407</ele>
        <time>2019-09-07T10:34:41.833Z</time>
      </trkpt>
      <trkpt lat="45.42022" lon="5.76099">
        <ele>436.383545</ele>
        <time>2019-09-07T10:34:46.833Z</time>
      </trkpt>
      <trkpt lat="45.42047" lon="5.76125">
        <ele>440.623291</ele>
        <time>2019-09-07T10:34:51.833Z</time>
      </trkpt>
      <trkpt lat="45.42068" lon="5.7615">
        <ele>436.11438</ele>
        <time>2019-09-07T10:34:56.833Z</time>
      </trkpt>
      <trkpt lat="45.42092" lon="5.76173">
        <ele>433.697144</ele>
        <time>2019-09-07T10:35:01.833Z</time>
      </trkpt>
      <trkpt lat="45.42115" lon="5.76197">
        <ele>433.149902</ele>
        <time>2019-09-07T10:35:06.833Z</time>
      </trkpt>
      <trkpt lat="45.42139" lon="5.76222">
        <ele>434.955322</ele>
        <time>2019-09-07T10:35:11.833Z</time>
      </trkpt>
      <trkpt lat="45.4216" lon="5.76245">
        <ele>434.506226</ele>
        <time>2019-09-07T10:35:16.833Z</time>
      </trkpt>
      <trkpt lat="45.42179" lon="5.76266">
        <ele>434.66748</ele>
        <time>2019-09-07T10:35:21.833Z</time>
      </trkpt>
      <trkpt lat="45.422" lon="5.7629">
        <ele>435.644653</ele>
        <time>2019-09-07T10:35:26.834Z</time>
      </trkpt>
      <trkpt lat="45.42224" lon="5.76313">
        <ele>435.417419</ele>
        <time>2019-09-07T10:35:31.834Z</time>
      </trkpt>
      <trkpt lat="45.42247" lon="5.76337">
        <ele>436.18042</ele>
        <time>2019-09-07T10:35:36.834Z</time>
      </trkpt>
      <trkpt lat="45.4227" lon="5.76363">
        <ele>437.210999</ele>
        <time>2019-09-07T10:35:41.834Z</time>
      </trkpt>
      <trkpt lat="45.42292" lon="5.76384">
        <ele>438.278809</ele>
        <time>2019-09-07T10:35:46.834Z</time>
      </trkpt>
      <trkpt lat="45.42319" lon="5.76398">
        <ele>439.49231</ele>
        <time>2019-09-07T10:35:51.834Z</time>
      </trkpt>
      <trkpt lat="45.42347" lon="5.76404">
        <ele>440.063477</ele>
        <time>2019-09-07T10:35:56.834Z</time>
      </trkpt>
      <trkpt lat="45.42376" lon="5.76411">
        <ele>440.675171</ele>
        <time>2019-09-07T10:36:01.834Z</time>
      </trkpt>
      <trkpt lat="45.42403" lon="5.76419">
        <ele>441.000183</ele>
        <time>2019-09-07T10:36:06.834Z</time>
      </trkpt>
      <trkpt lat="45.42431" lon="5.76432">
        <ele>439.658508</ele>
        <time>2019-09-07T10:36:11.834Z</time>
      </trkpt>
      <trkpt lat="45.42457" lon="5.7645">
        <ele>439.867676</ele>
        <time>2019-09-07T10:36:16.834Z</time>
      </trkpt>
      <trkpt lat="45.42477" lon="5.76468">
        <ele>441.371216</ele>
        <time>2019-09-07T10:36:23.883Z</time>
      </trkpt>
      <trkpt lat="45.42513" lon="5.76509">
        <ele>439.672852</ele>
        <time>2019-09-07T10:36:28.965Z</time>
      </trkpt>
      <trkpt lat="45.42533" lon="5.76536">
        <ele>440.104553</ele>
        <time>2019-09-07T10:36:34.007Z</time>
      </trkpt>
      <trkpt lat="45.42554" lon="5.7656">
        <ele>440.407776</ele>
        <time>2019-09-07T10:36:39.042Z</time>
      </trkpt>
      <trkpt lat="45.42579" lon="5.76581">
        <ele>440.595581</ele>
        <time>2019-09-07T10:36:44.074Z</time>
      </trkpt>
      <trkpt lat="45.42602" lon="5.76602">
        <ele>439.884399</ele>
        <time>2019-09-07T10:36:49.128Z</time>
      </trkpt>
      <trkpt lat="45.42625" lon="5.76623">
        <ele>441.363525</ele>
        <time>2019-09-07T10:36:54.164Z</time>
      </trkpt>
      <trkpt lat="45.4265" lon="5.76643">
        <ele>442.925598</ele>
        <time>2019-09-07T10:36:59.204Z</time>
      </trkpt>
      <trkpt lat="45.42676" lon="5.76659">
        <ele>442.824707</ele>
        <time>2019-09-07T10:37:04.254Z</time>
      </trkpt>
      <trkpt lat="45.42702" lon="5.76673">
        <ele>444.615601</ele>
        <time>2019-09-07T10:37:09.318Z</time>
      </trkpt>
      <trkpt lat="45.4273" lon="5.76687">
        <ele>444.318298</ele>
        <time>2019-09-07T10:37:14.350Z</time>
      </trkpt>
      <trkpt lat="45.42757" lon="5.76701">
        <ele>445.711548</ele>
        <time>2019-09-07T10:37:19.411Z</time>
      </trkpt>
      <trkpt lat="45.42784" lon="5.76712">
        <ele>445.712891</ele>
        <time>2019-09-07T10:37:24.463Z</time>
      </trkpt>
      <trkpt lat="45.42813" lon="5.76724">
        <ele>445.650146</ele>
        <time>2019-09-07T10:37:29.490Z</time>
      </trkpt>
      <trkpt lat="45.42842" lon="5.76735">
        <ele>446.219299</ele>
        <time>2019-09-07T10:37:34.527Z</time>
      </trkpt>
      <trkpt lat="45.4287" lon="5.76744">
        <ele>448.493713</ele>
        <time>2019-09-07T10:37:39.557Z</time>
      </trkpt>
      <trkpt lat="45.42899" lon="5.76756">
        <ele>445.571777</ele>
        <time>2019-09-07T10:37:44.583Z</time>
      </trkpt>
      <trkpt lat="45.42926" lon="5.76768">
        <ele>447.491089</ele>
        <time>2019-09-07T10:37:49.613Z</time>
      </trkpt>
      <trkpt lat="45.42954" lon="5.76779">
        <ele>446.823303</ele>
        <time>2019-09-07T10:37:54.649Z</time>
      </trkpt>
      <trkpt lat="45.42981" lon="5.76791">
        <ele>447.421143</ele>
        <time>2019-09-07T10:37:59.715Z</time>
      </trkpt>
      <trkpt lat="45.43008" lon="5.76804">
        <ele>448.917358</ele>
        <time>2019-09-07T10:38:04.760Z</time>
      </trkpt>
      <trkpt lat="45.43034" lon="5.76819">
        <ele>450.311951</ele>
        <time>2019-09-07T10:38:09.800Z</time>
      </trkpt>
      <trkpt lat="45.43065" lon="5.7684">
        <ele>450.875305</ele>
        <time>2019-09-07T10:38:14.839Z</time>
      </trkpt>
      <trkpt lat="45.43078" lon="5.76849">
        <ele>449.882813</ele>
        <time>2019-09-07T10:38:20.887Z</time>
      </trkpt>
      <trkpt lat="45.43124" lon="5.76868">
        <ele>448.149414</ele>
        <time>2019-09-07T10:38:25.946Z</time>
      </trkpt>
      <trkpt lat="45.43149" lon="5.76887">
        <ele>448.882935</ele>
        <time>2019-09-07T10:38:30.995Z</time>
      </trkpt>
      <trkpt lat="45.43171" lon="5.76882">
        <ele>447.088135</ele>
        <time>2019-09-07T10:38:36.015Z</time>
      </trkpt>
      <trkpt lat="45.4318" lon="5.76848">
        <ele>446.393433</ele>
        <time>2019-09-07T10:38:41.043Z</time>
      </trkpt>
      <trkpt lat="45.43189" lon="5.76814">
        <ele>444.737915</ele>
        <time>2019-09-07T10:38:46.112Z</time>
      </trkpt>
      <trkpt lat="45.43199" lon="5.76778">
        <ele>445.309326</ele>
        <time>2019-09-07T10:38:51.151Z</time>
      </trkpt>
      <trkpt lat="45.4321" lon="5.76743">
        <ele>444.153809</ele>
        <time>2019-09-07T10:38:56.184Z</time>
      </trkpt>
      <trkpt lat="45.43224" lon="5.76714">
        <ele>444.662964</ele>
        <time>2019-09-07T10:39:01.256Z</time>
      </trkpt>
      <trkpt lat="45.43248" lon="5.76728">
        <ele>445.800659</ele>
        <time>2019-09-07T10:39:06.272Z</time>
      </trkpt>
      <trkpt lat="45.4327" lon="5.76749">
        <ele>447.109863</ele>
        <time>2019-09-07T10:39:11.314Z</time>
      </trkpt>
      <trkpt lat="45.43293" lon="5.76768">
        <ele>448.194458</ele>
        <time>2019-09-07T10:39:16.365Z</time>
      </trkpt>
      <trkpt lat="45.43315" lon="5.76788">
        <ele>447.963623</ele>
        <time>2019-09-07T10:39:21.424Z</time>
      </trkpt>
      <trkpt lat="45.43344" lon="5.76813">
        <ele>448.991821</ele>
        <time>2019-09-07T10:39:26.833Z</time>
      </trkpt>
      <trkpt lat="45.43367" lon="5.76844">
        <ele>449.46521</ele>
        <time>2019-09-07T10:39:31.833Z</time>
      </trkpt>
      <trkpt lat="45.43388" lon="5.76877">
        <ele>451.77002</ele>
        <time>2019-09-07T10:39:36.833Z</time>
      </trkpt>
      <trkpt lat="45.43408" lon="5.76908">
        <ele>451.594727</ele>
        <time>2019-09-07T10:39:41.833Z</time>
      </trkpt>
      <trkpt lat="45.4343" lon="5.76938">
        <ele>450.627991</ele>
        <time>2019-09-07T10:39:46.833Z</time>
      </trkpt>
      <trkpt lat="45.43451" lon="5.7697">
        <ele>451.322754</ele>
        <time>2019-09-07T10:39:51.833Z</time>
      </trkpt>
      <trkpt lat="45.43474" lon="5.77001">
        <ele>451.979065</ele>
        <time>2019-09-07T10:39:56.833Z</time>
      </trkpt>
      <trkpt lat="45.43495" lon="5.77031">
        <ele>450.631714</ele>
        <time>2019-09-07T10:40:01.833Z</time>
      </trkpt>
      <trkpt lat="45.43516" lon="5.77059">
        <ele>451.352661</ele>
        <time>2019-09-07T10:40:06.833Z</time>
      </trkpt>
      <trkpt lat="45.43538" lon="5.77086">
        <ele>451.889282</ele>
        <time>2019-09-07T10:40:11.833Z</time>
      </trkpt>
      <trkpt lat="45.43562" lon="5.77114">
        <ele>451.461182</ele>
        <time>2019-09-07T10:40:16.833Z</time>
      </trkpt>
      <trkpt lat="45.43584" lon="5.77145">
        <ele>452.745178</ele>
        <time>2019-09-07T10:40:21.835Z</time>
      </trkpt>
      <trkpt lat="45.43604" lon="5.77176">
        <ele>454.839355</ele>
        <time>2019-09-07T10:40:26.835Z</time>
      </trkpt>
      <trkpt lat="45.43624" lon="5.77208">
        <ele>453.993042</ele>
        <time>2019-09-07T10:40:31.835Z</time>
      </trkpt>
      <trkpt lat="45.43645" lon="5.7724">
        <ele>453.54364</ele>
        <time>2019-09-07T10:40:36.835Z</time>
      </trkpt>
      <trkpt lat="45.43668" lon="5.77268">
        <ele>454.047241</ele>
        <time>2019-09-07T10:40:41.835Z</time>
      </trkpt>
      <trkpt lat="45.43695" lon="5.77281">
        <ele>453.879883</ele>
        <time>2019-09-07T10:40:46.835Z</time>
      </trkpt>
      <trkpt lat="45.43726" lon="5.77282">
        <ele>455.71106</ele>
        <time>2019-09-07T10:40:51.835Z</time>
      </trkpt>
      <trkpt lat="45.43757" lon="5.7728">
        <ele>453.849609</ele>
        <time>2019-09-07T10:40:56.835Z</time>
      </trkpt>
      <trkpt lat="45.43787" lon="5.77281">
        <ele>454.726318</ele>
        <time>2019-09-07T10:41:01.835Z</time>
      </trkpt>
      <trkpt lat="45.43815" lon="5.77284">
        <ele>455.251953</ele>
        <time>2019-09-07T10:41:06.835Z</time>
      </trkpt>
      <trkpt lat="45.43843" lon="5.77288">
        <ele>453.901611</ele>
        <time>2019-09-07T10:41:11.835Z</time>
      </trkpt>
      <trkpt lat="45.4386" lon="5.77315">
        <ele>449.863159</ele>
        <time>2019-09-07T10:41:16.835Z</time>
      </trkpt>
      <trkpt lat="45.43871" lon="5.77351">
        <ele>449.572144</ele>
        <time>2019-09-07T10:41:22.826Z</time>
      </trkpt>
      <trkpt lat="45.43868" lon="5.77386">
        <ele>450.941589</ele>
        <time>2019-09-07T10:41:27.826Z</time>
      </trkpt>
      <trkpt lat="45.43862" lon="5.77415">
        <ele>453.184692</ele>
        <time>2019-09-07T10:41:32.826Z</time>
      </trkpt>
      <trkpt lat="45.43853" lon="5.77427">
        <ele>453.96167</ele>
        <time>2019-09-07T10:41:37.827Z</time>
      </trkpt>
      <trkpt lat="45.43838" lon="5.77422">
        <ele>457.375061</ele>
        <time>2019-09-07T10:41:42.827Z</time>
      </trkpt>
      <trkpt lat="45.43821" lon="5.77415">
        <ele>455.979431</ele>
        <time>2019-09-07T10:41:47.827Z</time>
      </trkpt>
      <trkpt lat="45.43807" lon="5.77414">
        <ele>453.359192</ele>
        <time>2019-09-07T10:41:52.830Z</time>
      </trkpt>
      <trkpt lat="45.43808" lon="5.77412">
        <ele>452.079224</ele>
        <time>2019-09-07T10:41:57.832Z</time>
      </trkpt>
      <trkpt lat="45.43807" lon="5.77408">
        <ele>451.931763</ele>
        <time>2019-09-07T10:42:07.819Z</time>
      </trkpt>
      <trkpt lat="45.43808" lon="5.77406">
        <ele>450.885376</ele>
        <time>2019-09-07T10:42:12.827Z</time>
      </trkpt>
      <trkpt lat="45.43808" lon="5.77394">
        <ele>453.545044</ele>
        <time>2019-09-07T10:42:17.832Z</time>
      </trkpt>
      <trkpt lat="45.4381" lon="5.77383">
        <ele>453.279297</ele>
        <time>2019-09-07T10:42:22.838Z</time>
      </trkpt>
      <trkpt lat="45.43809" lon="5.77381">
        <ele>452.280762</ele>
        <time>2019-09-07T10:42:33.970Z</time>
      </trkpt>
      <trkpt lat="45.43808" lon="5.77382">
        <ele>451.620361</ele>
        <time>2019-09-07T10:42:55.830Z</time>
      </trkpt>
      <trkpt lat="45.43808" lon="5.77385">
        <ele>452.086426</ele>
        <time>2019-09-07T10:43:00.832Z</time>
      </trkpt>
      <trkpt lat="45.43809" lon="5.77386">
        <ele>451.350342</ele>
        <time>2019-09-07T10:43:05.833Z</time>
      </trkpt>
      <trkpt lat="45.43813" lon="5.77384">
        <ele>453.574951</ele>
        <time>2019-09-07T10:43:10.835Z</time>
      </trkpt>
      <trkpt lat="45.43814" lon="5.77383">
        <ele>450.991333</ele>
        <time>2019-09-07T10:43:16.828Z</time>
      </trkpt>
      <trkpt lat="45.43813" lon="5.77383">
        <ele>450.365723</ele>
        <time>2019-09-07T10:43:24.824Z</time>
      </trkpt>
      <trkpt lat="45.43812" lon="5.77383">
        <ele>450.931946</ele>
        <time>2019-09-07T10:43:39.825Z</time>
      </trkpt>
      <trkpt lat="45.43812" lon="5.77382">
        <ele>450.888306</ele>
        <time>2019-09-07T10:43:56.827Z</time>
      </trkpt>
      <trkpt lat="45.4381" lon="5.77381">
        <ele>451.957397</ele>
        <time>2019-09-07T10:44:09.832Z</time>
      </trkpt>
      <trkpt lat="45.43808" lon="5.77383">
        <ele>455.240112</ele>
        <time>2019-09-07T10:44:14.867Z</time>
      </trkpt>
      <trkpt lat="45.43811" lon="5.77385">
        <ele>452.148254</ele>
        <time>2019-09-07T10:44:19.961Z</time>
      </trkpt>
      <trkpt lat="45.43809" lon="5.77391">
        <ele>452.602173</ele>
        <time>2019-09-07T10:44:25.020Z</time>
      </trkpt>
      <trkpt lat="45.43806" lon="5.77397">
        <ele>452.648865</ele>
        <time>2019-09-07T10:44:30.054Z</time>
      </trkpt>
      <trkpt lat="45.43805" lon="5.77402">
        <ele>455.037781</ele>
        <time>2019-09-07T10:44:35.129Z</time>
      </trkpt>
      <trkpt lat="45.43806" lon="5.77401">
        <ele>453.577515</ele>
        <time>2019-09-07T10:44:50.829Z</time>
      </trkpt>
      <trkpt lat="45.43804" lon="5.77403">
        <ele>453.089661</ele>
        <time>2019-09-07T10:45:03.823Z</time>
      </trkpt>
      <trkpt lat="45.43804" lon="5.77405">
        <ele>456.283691</ele>
        <time>2019-09-07T10:45:25.832Z</time>
      </trkpt>
      <trkpt lat="45.43803" lon="5.77405">
        <ele>453.993164</ele>
        <time>2019-09-07T10:45:30.840Z</time>
      </trkpt>
      <trkpt lat="45.43804" lon="5.77405">
        <ele>451.665283</ele>
        <time>2019-09-07T10:45:38.147Z</time>
      </trkpt>
      <trkpt lat="45.43805" lon="5.77407">
        <ele>449.19397</ele>
        <time>2019-09-07T10:45:43.834Z</time>
      </trkpt>
      <trkpt lat="45.43804" lon="5.77408">
        <ele>450.465942</ele>
        <time>2019-09-07T10:45:48.834Z</time>
      </trkpt>
      <trkpt lat="45.43806" lon="5.77407">
        <ele>450.975281</ele>
        <time>2019-09-07T10:45:55.830Z</time>
      </trkpt>
      <trkpt lat="45.43812" lon="5.77408">
        <ele>449.855713</ele>
        <time>2019-09-07T10:46:00.830Z</time>
      </trkpt>
      <trkpt lat="45.43812" lon="5.7741">
        <ele>451.998047</ele>
        <time>2019-09-07T10:46:05.830Z</time>
      </trkpt>
      <trkpt lat="45.43806" lon="5.77406">
        <ele>445.81665</ele>
        <time>2019-09-07T10:46:37.826Z</time>
      </trkpt>
      <trkpt lat="45.43811" lon="5.77398">
        <ele>451.551575</ele>
        <time>2019-09-07T10:46:42.826Z</time>
      </trkpt>
      <trkpt lat="45.43813" lon="5.77389">
        <ele>453.27478</ele>
        <time>2019-09-07T10:46:47.827Z</time>
      </trkpt>
      <trkpt lat="45.43812" lon="5.77384">
        <ele>454.04834</ele>
        <time>2019-09-07T10:47:07.776Z</time>
      </trkpt>
      <trkpt lat="45.43811" lon="5.77387">
        <ele>455.621582</ele>
        <time>2019-09-07T10:47:12.814Z</time>
      </trkpt>
      <trkpt lat="45.43811" lon="5.77392">
        <ele>454.321777</ele>
        <time>2019-09-07T10:47:17.826Z</time>
      </trkpt>
      <trkpt lat="45.43813" lon="5.77382">
        <ele>452.956055</ele>
        <time>2019-09-07T10:47:22.828Z</time>
      </trkpt>
      <trkpt lat="45.43813" lon="5.77378">
        <ele>448.978882</ele>
        <time>2019-09-07T10:47:27.979Z</time>
      </trkpt>
      <trkpt lat="45.43813" lon="5.77381">
        <ele>443.95697</ele>
        <time>2019-09-07T10:47:33.039Z</time>
      </trkpt>
      <trkpt lat="45.43811" lon="5.77389">
        <ele>445.280945</ele>
        <time>2019-09-07T10:47:38.067Z</time>
      </trkpt>
      <trkpt lat="45.43814" lon="5.77393">
        <ele>445.963745</ele>
        <time>2019-09-07T10:47:43.118Z</time>
      </trkpt>
      <trkpt lat="45.43815" lon="5.77399">
        <ele>452.894165</ele>
        <time>2019-09-07T10:47:48.178Z</time>
      </trkpt>
      <trkpt lat="45.43808" lon="5.77417">
        <ele>427.738892</ele>
        <time>2019-09-07T10:49:11.829Z</time>
      </trkpt>
      <trkpt lat="45.43811" lon="5.7741">
        <ele>454.43158</ele>
        <time>2019-09-07T10:56:03.828Z</time>
      </trkpt>
      <trkpt lat="45.4381" lon="5.77407">
        <ele>457.265381</ele>
        <time>2019-09-07T10:56:10.827Z</time>
      </trkpt>
      <trkpt lat="45.43809" lon="5.77406">
        <ele>459.13501</ele>
        <time>2019-09-07T10:56:17.178Z</time>
      </trkpt>
      <trkpt lat="45.43812" lon="5.77399">
        <ele>459.940552</ele>
        <time>2019-09-07T10:56:22.238Z</time>
      </trkpt>
      <trkpt lat="45.43814" lon="5.77397">
        <ele>460.41272</ele>
        <time>2019-09-07T10:56:27.275Z</time>
      </trkpt>
      <trkpt lat="45.43813" lon="5.77394">
        <ele>460.044678</ele>
        <time>2019-09-07T10:56:32.311Z</time>
      </trkpt>
      <trkpt lat="45.43814" lon="5.77395">
        <ele>460.406738</ele>
        <time>2019-09-07T10:56:50.817Z</time>
      </trkpt>
    </trkseg>
  </trk>
</gpx>